Observation data for Stamford on 01/19/2019      Previous  Date  Next       Current Mesonet Observations  Soil Data  Daily Summary Page  Observations in Plain Language
KST2 190600Z 33018KT 07/02 A2995 RMK A01 T00660019  RH  072%=      5-min Rain = 0
KST2 190601Z 33019G24KT 07/02 A2995 RMK A01 T00650019  RH  072%=      5-min Rain = 0
KST2 190602Z 33023G29KT 07/02 A2995 RMK A01 T00650017  RH  072%=      5-min Rain = 0
KST2 190603Z 33023G29KT 07/02 A2995 RMK A01 T00650016  RH  071%=      5-min Rain = 0
KST2 190604Z 33023KT 07/02 A2995 RMK A01 T00650017  RH  071%=      5-min Rain = 0
KST2 190605Z 34022KT 07/02 A2995 RMK A01 T00650017  RH  071%=      5-min Rain = 0
KST2 190606Z 33022KT 07/02 A2995 RMK A01 T00650016  RH  071%=      5-min Rain = 0
KST2 190607Z 34022G29KT 06/02 A2995 RMK A01 T00640016  RH  071%=      5-min Rain = 0
KST2 190608Z 34020KT 07/02 A2995 RMK A01 T00650017  RH  072%=      5-min Rain = 0
KST2 190609Z 33020G25KT 06/02 A2995 RMK A01 T00640017  RH  072%=      5-min Rain = 0
KST2 190610Z 33022G28KT 06/02 A2995 RMK A01 T00640016  RH  071%=      5-min Rain = 0
KST2 190611Z 34021KT 06/02 A2996 RMK A01 T00640017  RH  072%=      5-min Rain = 0
KST2 190612Z 34021G26KT 06/02 A2996 RMK A01 T00640017  RH  072%=      5-min Rain = 0
KST2 190613Z 33023G28KT 06/02 A2996 RMK A01 T00640017  RH  072%=      5-min Rain = 0
KST2 190614Z 33023G28KT 06/02 A2996 RMK A01 T00640016  RH  071%=      5-min Rain = 0
KST2 190615Z 33023G30KT 06/02 A2996 RMK A01 T00640016  RH  072%=      5-min Rain = 0
KST2 190616Z 33025KT 06/02 A2996 RMK A01 T00640015  RH  071%=      5-min Rain = 0
KST2 190617Z 33024KT 06/01 A2996 RMK A01 T00630014  RH  071%=      5-min Rain = 0
KST2 190618Z 33025KT 06/02 A2996 RMK A01 T00630015  RH  071%=      5-min Rain = 0
KST2 190619Z 33022G29KT 06/01 A2996 RMK A01 T00630014  RH  071%=      5-min Rain = 0
KST2 190620Z 33020G26KT 06/02 A2996 RMK A01 T00630016  RH  072%=      5-min Rain = 0
KST2 190621Z 33019KT 06/02 A2996 RMK A01 T00630015  RH  072%=      5-min Rain = 0
KST2 190622Z 33021KT 06/02 A2996 RMK A01 T00630015  RH  071%=      5-min Rain = 0
KST2 190623Z 33019KT 06/02 A2996 RMK A01 T00630015  RH  071%=      5-min Rain = 0
KST2 190624Z 32018KT 06/02 A2996 RMK A01 T00630015  RH  071%=      5-min Rain = 0
KST2 190625Z 32023G31KT 06/02 A2996 RMK A01 T00620015  RH  072%=      5-min Rain = 0
KST2 190626Z 33024KT 06/01 A2996 RMK A01 T00620012  RH  070%=      5-min Rain = 0
KST2 190627Z 33025G30KT 06/01 A2996 RMK A01 T00610012  RH  071%=      5-min Rain = 0
KST2 190628Z 33023G29KT 06/01 A2997 RMK A01 T00610012  RH  071%=      5-min Rain = 0
KST2 190629Z 33025G32KT 06/01 A2997 RMK A01 T00610011  RH  071%=      5-min Rain = 0
KST2 190630Z 33025KT 06/01 A2997 RMK A01 T00610012  RH  071%=      5-min Rain = 0
KST2 190631Z 33025G31KT 06/01 A2997 RMK A01 T00600011  RH  071%=      5-min Rain = 0
KST2 190632Z 33022KT 06/01 A2997 RMK A01 T00600011  RH  071%=      5-min Rain = 0
KST2 190633Z 33023KT 06/01 A2997 RMK A01 T00600012  RH  072%=      5-min Rain = 0
KST2 190634Z 33020KT 06/01 A2997 RMK A01 T00590012  RH  072%=      5-min Rain = 0
KST2 190635Z 33018G23KT 06/01 A2997 RMK A01 T00590014  RH  072%=      5-min Rain = 0
KST2 190636Z 34024G30KT 06/01 A2997 RMK A01 T00590013  RH  073%=      5-min Rain = 0
KST2 190637Z 34027G33KT 06/01 A2997 RMK A01 T00580011  RH  072%=      5-min Rain = 0
KST2 190638Z 33031KT 06/01 A2997 RMK A01 T00580010  RH  071%=      5-min Rain = 0
KST2 190639Z 33027KT 06/01 A2997 RMK A01 T00570009  RH  071%=      5-min Rain = 0
KST2 190640Z 34023G29KT 06/01 A2998 RMK A01 T00570010  RH  072%=      5-min Rain = 0
KST2 190641Z 34027KT 06/01 A2998 RMK A01 T00560010  RH  072%=      5-min Rain = 0
KST2 190642Z 33023G29KT 06/01 A2998 RMK A01 T00560009  RH  072%=      5-min Rain = 0
KST2 190643Z 34025G31KT 06/01 A2998 RMK A01 T00560009  RH  072%=      5-min Rain = 0
KST2 190644Z 34027G33KT 06/01 A2998 RMK A01 T00560009  RH  072%=      5-min Rain = 0
KST2 190645Z 34028G33KT 06/01 A2998 RMK A01 T00560007  RH  071%=      5-min Rain = 0
KST2 190646Z 34024KT 06/01 A2998 RMK A01 T00550008  RH  071%=      5-min Rain = 0
KST2 190647Z 34022KT 06/01 A2998 RMK A01 T00550008  RH  072%=      5-min Rain = 0
KST2 190648Z 34024G29KT 06/01 A2998 RMK A01 T00550009  RH  072%=      5-min Rain = 0
KST2 190649Z 34021KT 06/01 A2998 RMK A01 T00550008  RH  072%=      5-min Rain = 0
KST2 190650Z 33019KT 06/01 A2998 RMK A01 T00550009  RH  072%=      5-min Rain = 0
KST2 190651Z 34020KT 06/01 A2998 RMK A01 T00550009  RH  072%=      5-min Rain = 0
KST2 190652Z 33022KT 05/01 A2998 RMK A01 T00540008  RH  072%=      5-min Rain = 0
KST2 190653Z 34023KT 05/01 A2998 RMK A01 T00540007  RH  072%=      5-min Rain = 0
KST2 190654Z 33022G29KT 05/01 A2998 RMK A01 T00540007  RH  071%=      5-min Rain = 0
KST2 190655Z 33021G26KT 05/01 A2998 RMK A01 T00540007  RH  072%=      5-min Rain = 0
KST2 190656Z 33026G32KT 05/01 A2998 RMK A01 T00540006  RH  071%=      5-min Rain = 0
KST2 190657Z 33021KT 05/01 A2999 RMK A01 T00540005  RH  071%=      5-min Rain = 0
KST2 190658Z 33027G33KT 05/01 A2998 RMK A01 T00540005  RH  071%=      5-min Rain = 0
KST2 190659Z 33027G32KT 05/00 A2999 RMK A01 T00540004  RH  070%=      5-min Rain = 0
KST2 190700Z 33029KT 05/00 A2999 RMK A01 T00530002  RH  070%=      5-min Rain = 0
KST2 190701Z 32027G34KT 05/00 A2999 RMK A01 T00530003  RH  070%=      5-min Rain = 0
KST2 190702Z 33025KT 05/00 A2999 RMK A01 T00530002  RH  070%=      5-min Rain = 0
KST2 190703Z 32026KT 05/00 A2999 RMK A01 T00520003  RH  070%=      5-min Rain = 0
KST2 190704Z 33024KT 05/00 A2999 RMK A01 T00530001  RH  069%=      5-min Rain = 0
KST2 190705Z 32023KT 05/00 A2999 RMK A01 T00520002  RH  070%=      5-min Rain = 0
KST2 190706Z 32023KT 05/00 A2999 RMK A01 T00520003  RH  070%=      5-min Rain = 0
KST2 190707Z 33024KT 05/00 A2999 RMK A01 T00520002  RH  070%=      5-min Rain = 0
KST2 190708Z 33025KT 05/00 A2999 RMK A01 T00520001  RH  070%=      5-min Rain = 0
KST2 190709Z 33022G28KT 05/00 A2999 RMK A01 T00520001  RH  070%=      5-min Rain = 0
KST2 190710Z 33023KT 05/00 A2999 RMK A01 T00520002  RH  070%=      5-min Rain = 0
KST2 190711Z 32022KT 05/00 A2999 RMK A01 T00520001  RH  070%=      5-min Rain = 0
KST2 190712Z 33019KT 05/00 A2999 RMK A01 T00520003  RH  070%=      5-min Rain = 0
KST2 190713Z 33022G29KT 05/00 A2999 RMK A01 T00510003  RH  071%=      5-min Rain = 0
KST2 190714Z 34025G31KT 05/M00 A2999 RMK A01 T00511001  RH  069%=      5-min Rain = 0
KST2 190715Z 34025G30KT 05/M00 A30 RMK A01 T00511001  RH  069%=      5-min Rain = 0
KST2 190716Z 33023KT 05/00 A30 RMK A01 T00510001  RH  070%=      5-min Rain = 0
KST2 190717Z 33025KT 05/00 A2999 RMK A01 T00500000  RH  070%=      5-min Rain = 0
KST2 190718Z 33027KT 05/M00 A30 RMK A01 T00501001  RH  070%=      5-min Rain = 0
KST2 190719Z 33024G29KT 05/00 A30 RMK A01 T004900-0  RH  070%=      5-min Rain = 0
KST2 190720Z 33023G28KT 05/00 A30 RMK A01 T00490000  RH  071%=      5-min Rain = 0
KST2 190721Z 33020KT 05/00 A30 RMK A01 T00490001  RH  071%=      5-min Rain = 0
KST2 190722Z 33021G26KT 05/00 A30 RMK A01 T00480002  RH  072%=      5-min Rain = 0
KST2 190723Z 33025KT 05/00 A30 RMK A01 T004800-0  RH  071%=      5-min Rain = 0
KST2 190724Z 34025KT 05/M00 A30 RMK A01 T00481002  RH  070%=      5-min Rain = 0
KST2 190725Z 33020G25KT 05/00 A3001 RMK A01 T00480000  RH  071%=      5-min Rain = 0
KST2 190726Z 33028G33KT 05/00 A30 RMK A01 T00480000  RH  071%=      5-min Rain = 0
KST2 190727Z 33026G31KT 05/M00 A3001 RMK A01 T00471001  RH  071%=      5-min Rain = 0
KST2 190728Z 34023G29KT 05/M00 A3001 RMK A01 T00471001  RH  071%=      5-min Rain = 0
KST2 190729Z 33020G26KT 05/00 A3001 RMK A01 T00470001  RH  072%=      5-min Rain = 0
KST2 190730Z 33020KT 05/00 A3001 RMK A01 T00470002  RH  073%=      5-min Rain = 0
KST2 190731Z 33022G27KT 05/00 A3001 RMK A01 T00460002  RH  073%=      5-min Rain = 0
KST2 190732Z 34021KT 05/00 A3001 RMK A01 T00460001  RH  072%=      5-min Rain = 0
KST2 190733Z 34020KT 05/00 A3001 RMK A01 T00460001  RH  072%=      5-min Rain = 0
KST2 190734Z 34022KT 05/00 A3001 RMK A01 T00460001  RH  072%=      5-min Rain = 0
KST2 190735Z 35019KT 05/00 A3001 RMK A01 T00460001  RH  073%=      5-min Rain = 0
KST2 190736Z 34017G23KT 05/00 A3001 RMK A01 T00460002  RH  073%=      5-min Rain = 0
KST2 190737Z 34021KT 05/00 A3001 RMK A01 T00460001  RH  073%=      5-min Rain = 0
KST2 190738Z 34017KT 05/00 A3002 RMK A01 T00460001  RH  073%=      5-min Rain = 0
KST2 190739Z 34017KT 05/00 A3002 RMK A01 T00460002  RH  073%=      5-min Rain = 0
KST2 190740Z 33015KT 05/00 A3002 RMK A01 T00460002  RH  073%=      5-min Rain = 0
KST2 190741Z 34018KT 05/00 A3002 RMK A01 T00460004  RH  074%=      5-min Rain = 0
KST2 190742Z 34016KT 05/00 A3002 RMK A01 T00450002  RH  074%=      5-min Rain = 0
KST2 190743Z 33019KT 04/00 A3002 RMK A01 T00440002  RH  074%=      5-min Rain = 0
KST2 190744Z 33019G24KT 04/00 A3002 RMK A01 T00440001  RH  073%=      5-min Rain = 0
KST2 190745Z 33020G26KT 04/00 A3002 RMK A01 T00440000  RH  073%=      5-min Rain = 0
KST2 190746Z 33021G26KT 04/M00 A3002 RMK A01 T00441001  RH  072%=      5-min Rain = 0
KST2 190747Z 33019G25KT 04/00 A3002 RMK A01 T00440000  RH  073%=      5-min Rain = 0
KST2 190748Z 33019KT 04/00 A3002 RMK A01 T00440000  RH  073%=      5-min Rain = 0
KST2 190749Z 33020G25KT 04/00 A3002 RMK A01 T00440002  RH  074%=      5-min Rain = 0
KST2 190750Z 34023KT 04/00 A3002 RMK A01 T00440001  RH  073%=      5-min Rain = 0
KST2 190751Z 34021KT 04/M00 A3002 RMK A01 T00441001  RH  073%=      5-min Rain = 0
KST2 190752Z 34020KT 04/00 A3002 RMK A01 T00440000  RH  073%=      5-min Rain = 0
KST2 190753Z 34022KT 04/00 A3002 RMK A01 T004400-0  RH  073%=      5-min Rain = 0
KST2 190754Z 34019KT 04/00 A3002 RMK A01 T00430000  RH  074%=      5-min Rain = 0
KST2 190755Z 34019KT 04/00 A3002 RMK A01 T00430001  RH  074%=      5-min Rain = 0
KST2 190756Z 34020KT 04/00 A3002 RMK A01 T00430001  RH  074%=      5-min Rain = 0
KST2 190757Z 34018KT 04/00 A3002 RMK A01 T004300-0  RH  074%=      5-min Rain = 0
KST2 190758Z 33021KT 04/M00 A3002 RMK A01 T00431001  RH  073%=      5-min Rain = 0
KST2 190759Z 34017KT 04/M00 A3002 RMK A01 T00431002  RH  073%=      5-min Rain = 0
KST2 190800Z 33016KT 04/00 A3003 RMK A01 T00430002  RH  075%=      5-min Rain = 0
KST2 190801Z 33018KT 04/00 A3002 RMK A01 T00430000  RH  074%=      5-min Rain = 0
KST2 190802Z 33019KT 04/00 A3003 RMK A01 T00430000  RH  074%=      5-min Rain = 0
KST2 190803Z 33016KT 04/00 A3003 RMK A01 T004300-0  RH  074%=      5-min Rain = 0
KST2 190804Z 33017G22KT 04/00 A3003 RMK A01 T00430001  RH  074%=      5-min Rain = 0
KST2 190805Z 33017KT 04/00 A3003 RMK A01 T00430000  RH  074%=      5-min Rain = 0
KST2 190806Z 33018G27KT 04/00 A3003 RMK A01 T004300-0  RH  073%=      5-min Rain = 0
KST2 190807Z 33024G30KT 04/M00 A3003 RMK A01 T00431003  RH  072%=      5-min Rain = 0
KST2 190808Z 33022G30KT 04/M00 A3003 RMK A01 T00431004  RH  071%=      5-min Rain = 0
KST2 190809Z 33021KT 04/M00 A3003 RMK A01 T00431002  RH  072%=      5-min Rain = 0
KST2 190810Z 33020G25KT 04/M00 A3003 RMK A01 T00431003  RH  072%=      5-min Rain = 0
KST2 190811Z 33022G27KT 04/M00 A3003 RMK A01 T00431003  RH  072%=      5-min Rain = 0
KST2 190812Z 33025KT 04/M00 A3003 RMK A01 T00421004  RH  072%=      5-min Rain = 0
KST2 190813Z 33023G31KT 04/M01 A3003 RMK A01 T00421005  RH  071%=      5-min Rain = 0
KST2 190814Z 32022G27KT 04/M00 A3003 RMK A01 T00421004  RH  072%=      5-min Rain = 0
KST2 190815Z 32024KT 04/M00 A3003 RMK A01 T00411004  RH  072%=      5-min Rain = 0
KST2 190816Z 32025G30KT 04/M00 A3004 RMK A01 T00401004  RH  073%=      5-min Rain = 0
KST2 190817Z 32024KT 04/M00 A3004 RMK A01 T00391004  RH  073%=      5-min Rain = 0
KST2 190818Z 33025G31KT 04/M00 A3004 RMK A01 T00391004  RH  073%=      5-min Rain = 0
KST2 190819Z 33021G26KT 04/M00 A3004 RMK A01 T00391003  RH  074%=      5-min Rain = 0
KST2 190820Z 32019G24KT 04/M00 A3004 RMK A01 T00391002  RH  075%=      5-min Rain = 0
KST2 190821Z 32020KT 04/M00 A3004 RMK A01 T00381002  RH  075%=      5-min Rain = 0
KST2 190822Z 33025G31KT 04/M00 A3004 RMK A01 T00391002  RH  075%=      5-min Rain = 0
KST2 190823Z 33027KT 04/M00 A3004 RMK A01 T00381004  RH  074%=      5-min Rain = 0
KST2 190824Z 33023G29KT 04/M00 A3004 RMK A01 T00381004  RH  074%=      5-min Rain = 0
KST2 190825Z 33025G30KT 04/M00 A3004 RMK A01 T00381003  RH  074%=      5-min Rain = 0
KST2 190826Z 33024KT 04/M00 A3004 RMK A01 T00381004  RH  074%=      5-min Rain = 0
KST2 190827Z 33026KT 04/M00 A3004 RMK A01 T00381004  RH  074%=      5-min Rain = 0
KST2 190828Z 33021KT 04/M00 A3004 RMK A01 T00381004  RH  074%=      5-min Rain = 0
KST2 190829Z 33020G25KT 04/M00 A3004 RMK A01 T00381002  RH  075%=      5-min Rain = 0
KST2 190830Z 33020G27KT 04/M00 A3004 RMK A01 T00381002  RH  075%=      5-min Rain = 0
KST2 190831Z 33024G29KT 04/M00 A3004 RMK A01 T00381002  RH  075%=      5-min Rain = 0
KST2 190832Z 32025KT 04/M00 A3004 RMK A01 T00381003  RH  075%=      5-min Rain = 0
KST2 190833Z 32024KT 04/M00 A3005 RMK A01 T00381003  RH  075%=      5-min Rain = 0
KST2 190834Z 32018G23KT 04/M00 A3005 RMK A01 T00381002  RH  075%=      5-min Rain = 0
KST2 190835Z 32023G29KT 04/00 A3005 RMK A01 T003700-0  RH  076%=      5-min Rain = 0
KST2 190836Z 32024KT 04/M00 A3005 RMK A01 T00371002  RH  076%=      5-min Rain = 0
KST2 190837Z 32021G26KT 04/M00 A3005 RMK A01 T00361002  RH  076%=      5-min Rain = 0
KST2 190838Z 32022G27KT 04/M00 A3005 RMK A01 T00351002  RH  077%=      5-min Rain = 0
KST2 190839Z 32024G29KT 03/M00 A3005 RMK A01 T00341003  RH  076%=      5-min Rain = 0
KST2 190840Z 32025G33KT 03/M00 A3005 RMK A01 T00341002  RH  077%=      5-min Rain = 0
KST2 190841Z 33028G34KT 03/M00 A3005 RMK A01 T00321003  RH  078%=      5-min Rain = 0
KST2 190842Z 32027G32KT 03/M00 A3006 RMK A01 T00301003  RH  079%=      5-min Rain = 0
KST2 190843Z 33030KT 03/M00 A3006 RMK A01 T00281002  RH  080%=      5-min Rain = 0
KST2 190844Z 33025KT 03/M00 A3006 RMK A01 T00271001  RH  082%=      5-min Rain = 0
KST2 190845Z 33029G35KT 03/00 A3006 RMK A01 T002600-0  RH  083%=      5-min Rain = 0
KST2 190846Z 34024KT 03/00 A3006 RMK A01 T00250001  RH  084%=      5-min Rain = 0
KST2 190847Z 33025KT 02/00 A3006 RMK A01 T00240001  RH  085%=      5-min Rain = 0
KST2 190848Z 34029G36KT 02/00 A3006 RMK A01 T00240000  RH  085%=      5-min Rain = 0
KST2 190849Z 34022G29KT 02/00 A3007 RMK A01 T00230000  RH  085%=      5-min Rain = 0
KST2 190850Z 33022G27KT 02/00 A3006 RMK A01 T00220002  RH  087%=      5-min Rain = 0
KST2 190851Z 33027G33KT 02/00 A3007 RMK A01 T00210002  RH  087%=      5-min Rain = 0
KST2 190852Z 33026KT 02/00 A3006 RMK A01 T00200001  RH  087%=      5-min Rain = 0
KST2 190853Z 34025KT 02/00 A3007 RMK A01 T00190001  RH  088%=      5-min Rain = 0
KST2 190854Z 34023G29KT 02/00 A3007 RMK A01 T00170002  RH  089%=      5-min Rain = 0
KST2 190855Z 34021G26KT 02/00 A3007 RMK A01 T00170003  RH  090%=      5-min Rain = 0
KST2 190856Z 33027G32KT 02/00 A3007 RMK A01 T00170004  RH  091%=      5-min Rain = 0
KST2 190857Z 33024G29KT 02/00 A3007 RMK A01 T00160002  RH  091%=      5-min Rain = 0
KST2 190858Z 33022G27KT 02/00 A3007 RMK A01 T00160003  RH  091%=      5-min Rain = 0
KST2 190859Z 34020KT 02/00 A3007 RMK A01 T00160004  RH  092%=      5-min Rain = 0
KST2 190900Z 34020KT 02/00 A3007 RMK A01 T00160004  RH  092%=      5-min Rain = 0
KST2 190901Z 34021KT 02/00 A3007 RMK A01 T00150004  RH  092%=      5-min Rain = 0
KST2 190902Z 34022G28KT 02/00 A3007 RMK A01 T00150004  RH  092%=      5-min Rain = 0
KST2 190903Z 34017KT 02/00 A3007 RMK A01 T00150003  RH  092%=      5-min Rain = 0
KST2 190904Z 33021KT 02/00 A3007 RMK A01 T00150004  RH  093%=      5-min Rain = 0
KST2 190905Z 34021KT 02/00 A3007 RMK A01 T00150004  RH  092%=      5-min Rain = 0
KST2 190906Z 34018G23KT 02/00 A3008 RMK A01 T00150004  RH  093%=      5-min Rain = 0
KST2 190907Z 33024KT 02/00 A3007 RMK A01 T00150004  RH  093%=      5-min Rain = 0
KST2 190908Z 34021KT 02/00 A3008 RMK A01 T00150004  RH  092%=      5-min Rain = 0
KST2 190909Z 33022KT 02/00 A3008 RMK A01 T00150003  RH  092%=      5-min Rain = 0
KST2 190910Z 34021KT 02/00 A3008 RMK A01 T00150003  RH  092%=      5-min Rain = 0
KST2 190911Z 34024KT 02/00 A3008 RMK A01 T00150003  RH  092%=      5-min Rain = 0
KST2 190912Z 34021KT 02/00 A3008 RMK A01 T00150003  RH  092%=      5-min Rain = 0
KST2 190913Z 34022KT 01/00 A3008 RMK A01 T00140003  RH  092%=      5-min Rain = 0
KST2 190914Z 34022KT 02/00 A3008 RMK A01 T00150003  RH  092%=      5-min Rain = 0
KST2 190915Z 34020KT 01/00 A3008 RMK A01 T00140002  RH  092%=      5-min Rain = 0
KST2 190916Z 34017G22KT 02/00 A3008 RMK A01 T00150003  RH  092%=      5-min Rain = 0
KST2 190917Z 34019G24KT 02/00 A3008 RMK A01 T00150003  RH  092%=      5-min Rain = 0
KST2 190918Z 34020KT 02/00 A3008 RMK A01 T00150004  RH  092%=      5-min Rain = 0
KST2 190919Z 34018KT 02/00 A3008 RMK A01 T00150003  RH  092%=      5-min Rain = 0
KST2 190920Z 34016KT 02/00 A3009 RMK A01 T00150003  RH  092%=      5-min Rain = 0
KST2 190921Z 33017G23KT 02/00 A3009 RMK A01 T00160004  RH  092%=      5-min Rain = 0
KST2 190922Z 34019KT 02/00 A3009 RMK A01 T00160004  RH  092%=      5-min Rain = 0
KST2 190923Z 34017KT 02/00 A3009 RMK A01 T00160004  RH  092%=      5-min Rain = 0
KST2 190924Z 34017KT 02/00 A3009 RMK A01 T00160003  RH  092%=      5-min Rain = 0
KST2 190925Z 34015G20KT 02/00 A3009 RMK A01 T00160004  RH  092%=      5-min Rain = 0
KST2 190926Z 34019KT 02/00 A3009 RMK A01 T00160004  RH  092%=      5-min Rain = 0
KST2 190927Z 34017KT 02/00 A3009 RMK A01 T00160003  RH  091%=      5-min Rain = 0
KST2 190928Z 33015KT 02/00 A3009 RMK A01 T00170003  RH  091%=      5-min Rain = 0
KST2 190929Z 33019KT 02/00 A3009 RMK A01 T00170004  RH  091%=      5-min Rain = 0
KST2 190930Z 33016KT 02/00 A3009 RMK A01 T00170004  RH  091%=      5-min Rain = 0
KST2 190931Z 33014KT 02/00 A3009 RMK A01 T00170004  RH  091%=      5-min Rain = 0
KST2 190932Z 33013KT 02/01 A3009 RMK A01 T00180005  RH  091%=      5-min Rain = 0
KST2 190933Z 33015KT 02/01 A3009 RMK A01 T00180006  RH  092%=      5-min Rain = 0
KST2 190934Z 32014KT 02/01 A3009 RMK A01 T00180005  RH  092%=      5-min Rain = 0
KST2 190935Z 33014KT 02/01 A3009 RMK A01 T00180005  RH  092%=      5-min Rain = 0
KST2 190936Z 33016KT 02/01 A3009 RMK A01 T00180005  RH  092%=      5-min Rain = 0
KST2 190937Z 33015KT 02/01 A3009 RMK A01 T00180005  RH  091%=      5-min Rain = 0
KST2 190938Z 32012KT 02/01 A3009 RMK A01 T00180006  RH  092%=      5-min Rain = 0
KST2 190939Z 33014KT 02/01 A3009 RMK A01 T00180006  RH  092%=      5-min Rain = 0
KST2 190940Z 33012KT 02/01 A3009 RMK A01 T00180006  RH  092%=      5-min Rain = 0
KST2 190941Z 32012KT 02/01 A3009 RMK A01 T00180006  RH  092%=      5-min Rain = 0
KST2 190942Z 32012KT 02/01 A3009 RMK A01 T00180007  RH  092%=      5-min Rain = 0
KST2 190943Z 32010KT 02/01 A301 RMK A01 T00180007  RH  092%=      5-min Rain = 0
KST2 190944Z 33011G17KT 02/01 A301 RMK A01 T00180008  RH  093%=      5-min Rain = 0
KST2 190945Z 32014KT 02/01 A301 RMK A01 T00190007  RH  092%=      5-min Rain = 0
KST2 190946Z 33015KT 02/01 A301 RMK A01 T00190006  RH  091%=      5-min Rain = 0
KST2 190947Z 32015KT 02/01 A301 RMK A01 T00190005  RH  090%=      5-min Rain = 0
KST2 190948Z 33014KT 02/00 A301 RMK A01 T00190004  RH  090%=      5-min Rain = 0
KST2 190949Z 33013KT 02/00 A301 RMK A01 T00200003  RH  089%=      5-min Rain = 0
KST2 190950Z 33011KT 02/00 A301 RMK A01 T00200004  RH  089%=      5-min Rain = 0
KST2 190951Z 33011KT 02/01 A301 RMK A01 T00200005  RH  090%=      5-min Rain = 0
KST2 190952Z 32012KT 02/01 A301 RMK A01 T00200005  RH  090%=      5-min Rain = 0
KST2 190953Z 33013KT 02/01 A301 RMK A01 T00210006  RH  090%=      5-min Rain = 0
KST2 190954Z 33017KT 02/00 A301 RMK A01 T00210004  RH  089%=      5-min Rain = 0
KST2 190955Z 33014KT 02/00 A301 RMK A01 T00210003  RH  088%=      5-min Rain = 0
KST2 190956Z 33013KT 02/00 A301 RMK A01 T00220003  RH  087%=      5-min Rain = 0
KST2 190957Z 33015KT 02/00 A301 RMK A01 T00220003  RH  087%=      5-min Rain = 0
KST2 190958Z 33017KT 02/00 A301 RMK A01 T00220002  RH  087%=      5-min Rain = 0
KST2 190959Z 33014KT 02/00 A301 RMK A01 T00220001  RH  086%=      5-min Rain = 0
KST2 191000Z 33013KT 02/00 A301 RMK A01 T00230002  RH  086%=      5-min Rain = 0
KST2 191001Z 32014KT 02/00 A301 RMK A01 T00230003  RH  087%=      5-min Rain = 0
KST2 191002Z 33015KT 02/00 A301 RMK A01 T00230003  RH  087%=      5-min Rain = 0
KST2 191003Z 32015KT 02/00 A301 RMK A01 T00230003  RH  087%=      5-min Rain = 0
KST2 191004Z 33014KT 02/00 A301 RMK A01 T00230002  RH  086%=      5-min Rain = 0
KST2 191005Z 33015KT 02/00 A301 RMK A01 T00230002  RH  086%=      5-min Rain = 0
KST2 191006Z 32018KT 02/00 A301 RMK A01 T00230001  RH  086%=      5-min Rain = 0
KST2 191007Z 33015KT 02/00 A3011 RMK A01 T00230000  RH  085%=      5-min Rain = 0
KST2 191008Z 33013KT 02/00 A3011 RMK A01 T00230002  RH  086%=      5-min Rain = 0
KST2 191009Z 32012KT 02/00 A3011 RMK A01 T00230003  RH  087%=      5-min Rain = 0
KST2 191010Z 32012KT 02/00 A3011 RMK A01 T00230004  RH  087%=      5-min Rain = 0
KST2 191011Z 32015KT 02/00 A3011 RMK A01 T00230004  RH  087%=      5-min Rain = 0
KST2 191012Z 32016KT 02/00 A3011 RMK A01 T00230003  RH  087%=      5-min Rain = 0
KST2 191013Z 32014KT 02/00 A3011 RMK A01 T00230003  RH  086%=      5-min Rain = 0
KST2 191014Z 32015KT 02/00 A3011 RMK A01 T00230003  RH  087%=      5-min Rain = 0
KST2 191015Z 32016KT 02/00 A3011 RMK A01 T00230002  RH  086%=      5-min Rain = 0
KST2 191016Z 32014KT 02/00 A3011 RMK A01 T00230001  RH  085%=      5-min Rain = 0
KST2 191017Z 32013KT 02/00 A3011 RMK A01 T00240003  RH  086%=      5-min Rain = 0
KST2 191018Z 31014KT 02/00 A3011 RMK A01 T00240004  RH  087%=      5-min Rain = 0
KST2 191019Z 32014G19KT 02/00 A3011 RMK A01 T00240004  RH  087%=      5-min Rain = 0
KST2 191020Z 31015KT 02/00 A3011 RMK A01 T00240003  RH  086%=      5-min Rain = 0
KST2 191021Z 31014KT 02/00 A3011 RMK A01 T00240002  RH  086%=      5-min Rain = 0
KST2 191022Z 31015KT 02/00 A3012 RMK A01 T00240002  RH  086%=      5-min Rain = 0
KST2 191023Z 32016KT 02/00 A3011 RMK A01 T00240002  RH  085%=      5-min Rain = 0
KST2 191024Z 31016KT 02/00 A3011 RMK A01 T00240001  RH  085%=      5-min Rain = 0
KST2 191025Z 32015KT 02/00 A3012 RMK A01 T00240000  RH  085%=      5-min Rain = 0
KST2 191026Z 32013KT 02/00 A3012 RMK A01 T00240001  RH  085%=      5-min Rain = 0
KST2 191027Z 32013KT 02/00 A3012 RMK A01 T00240002  RH  085%=      5-min Rain = 0
KST2 191028Z 31011KT 02/00 A3012 RMK A01 T00240003  RH  086%=      5-min Rain = 0
KST2 191029Z 31014KT 02/00 A3012 RMK A01 T00240003  RH  086%=      5-min Rain = 0
KST2 191030Z 32014KT 02/00 A3012 RMK A01 T00240002  RH  085%=      5-min Rain = 0
KST2 191031Z 32014KT 02/00 A3012 RMK A01 T00240001  RH  085%=      5-min Rain = 0
KST2 191032Z 32011KT 02/00 A3012 RMK A01 T00240001  RH  085%=      5-min Rain = 0
KST2 191033Z 32012KT 02/00 A3012 RMK A01 T00240003  RH  086%=      5-min Rain = 0
KST2 191034Z 31011KT 02/00 A3012 RMK A01 T00240002  RH  085%=      5-min Rain = 0
KST2 191035Z 32012KT 02/00 A3011 RMK A01 T00240002  RH  086%=      5-min Rain = 0
KST2 191036Z 32012KT 02/00 A3011 RMK A01 T00240002  RH  085%=      5-min Rain = 0
KST2 191037Z 32012KT 02/00 A3011 RMK A01 T00240002  RH  085%=      5-min Rain = 0
KST2 191038Z 31012KT 03/00 A3012 RMK A01 T00250002  RH  085%=      5-min Rain = 0
KST2 191039Z 31012KT 03/00 A3011 RMK A01 T00250002  RH  085%=      5-min Rain = 0
KST2 191040Z 32011KT 03/00 A3011 RMK A01 T00250002  RH  085%=      5-min Rain = 0
KST2 191041Z 32009KT 02/00 A3012 RMK A01 T00240002  RH  085%=      5-min Rain = 0
KST2 191042Z 32011KT 02/00 A3012 RMK A01 T00240003  RH  086%=      5-min Rain = 0
KST2 191043Z 31012KT 03/00 A3011 RMK A01 T00250002  RH  085%=      5-min Rain = 0
KST2 191044Z 32012KT 02/00 A3011 RMK A01 T00240001  RH  084%=      5-min Rain = 0
KST2 191045Z 32012KT 03/00 A3011 RMK A01 T00250001  RH  084%=      5-min Rain = 0
KST2 191046Z 32012KT 03/00 A3011 RMK A01 T00250001  RH  084%=      5-min Rain = 0
KST2 191047Z 32010KT 03/00 A3011 RMK A01 T00250001  RH  084%=      5-min Rain = 0
KST2 191048Z 31011KT 03/00 A3011 RMK A01 T00250002  RH  085%=      5-min Rain = 0
KST2 191049Z 31010KT 03/00 A3011 RMK A01 T00250002  RH  085%=      5-min Rain = 0
KST2 191050Z 31012KT 03/00 A3011 RMK A01 T00250002  RH  085%=      5-min Rain = 0
KST2 191051Z 31012KT 03/00 A3011 RMK A01 T00250001  RH  084%=      5-min Rain = 0
KST2 191052Z 31012KT 03/00 A3011 RMK A01 T00250001  RH  084%=      5-min Rain = 0
KST2 191053Z 31011KT 03/00 A3011 RMK A01 T00260001  RH  084%=      5-min Rain = 0
KST2 191054Z 31012KT 03/00 A3011 RMK A01 T00250001  RH  084%=      5-min Rain = 0
KST2 191055Z 31010KT 03/00 A3011 RMK A01 T00260002  RH  084%=      5-min Rain = 0
KST2 191056Z 32009KT 03/00 A3012 RMK A01 T00260003  RH  085%=      5-min Rain = 0
KST2 191057Z 31011KT 03/00 A3012 RMK A01 T00260003  RH  085%=      5-min Rain = 0
KST2 191058Z 31012KT 03/00 A3012 RMK A01 T00260001  RH  084%=      5-min Rain = 0
KST2 191059Z 31009KT 03/00 A3012 RMK A01 T00260001  RH  084%=      5-min Rain = 0
KST2 191100Z 32013KT 03/00 A3012 RMK A01 T00270002  RH  084%=      5-min Rain = 0
KST2 191101Z 31012KT 03/00 A3012 RMK A01 T00270001  RH  083%=      5-min Rain = 0
KST2 191102Z 32013KT 03/00 A3012 RMK A01 T00270001  RH  083%=      5-min Rain = 0
KST2 191103Z 32013KT 03/M00 A3012 RMK A01 T00271001  RH  082%=      5-min Rain = 0
KST2 191104Z 31011KT 03/00 A3012 RMK A01 T002800-0  RH  082%=      5-min Rain = 0
KST2 191105Z 32011KT 03/00 A3012 RMK A01 T00280001  RH  083%=      5-min Rain = 0
KST2 191106Z 32012KT 03/00 A3012 RMK A01 T00280000  RH  082%=      5-min Rain = 0
KST2 191107Z 32011KT 03/00 A3012 RMK A01 T00280000  RH  082%=      5-min Rain = 0
KST2 191108Z 32010KT 03/00 A3012 RMK A01 T00280001  RH  082%=      5-min Rain = 0
KST2 191109Z 31012KT 03/00 A3013 RMK A01 T00280001  RH  083%=      5-min Rain = 0
KST2 191110Z 32011KT 03/00 A3013 RMK A01 T00280001  RH  082%=      5-min Rain = 0
KST2 191111Z 32013KT 03/00 A3013 RMK A01 T00280001  RH  082%=      5-min Rain = 0
KST2 191112Z 32012KT 03/M00 A3013 RMK A01 T00281001  RH  081%=      5-min Rain = 0
KST2 191113Z 32013KT 03/00 A3013 RMK A01 T002900-0  RH  081%=      5-min Rain = 0
KST2 191114Z 32013KT 03/00 A3013 RMK A01 T002900-0  RH  081%=      5-min Rain = 0
KST2 191115Z 33014KT 03/00 A3012 RMK A01 T00290000  RH  081%=      5-min Rain = 0
KST2 191116Z 32013KT 03/M00 A3013 RMK A01 T00291001  RH  081%=      5-min Rain = 0
KST2 191117Z 32011KT 03/00 A3013 RMK A01 T002900-0  RH  081%=      5-min Rain = 0
KST2 191118Z 32013KT 03/00 A3013 RMK A01 T00290001  RH  081%=      5-min Rain = 0
KST2 191119Z 32012G17KT 03/00 A3013 RMK A01 T002900-0  RH  081%=      5-min Rain = 0
KST2 191120Z 32015KT 03/M00 A3013 RMK A01 T00291001  RH  081%=      5-min Rain = 0
KST2 191121Z 33015KT 03/M00 A3013 RMK A01 T00301001  RH  080%=      5-min Rain = 0
KST2 191122Z 33012KT 03/M00 A3013 RMK A01 T00301002  RH  080%=      5-min Rain = 0
KST2 191123Z 32014KT 03/M00 A3013 RMK A01 T00301001  RH  080%=      5-min Rain = 0
KST2 191124Z 33015KT 03/M00 A3013 RMK A01 T00301001  RH  080%=      5-min Rain = 0
KST2 191125Z 33014KT 03/M00 A3013 RMK A01 T00301001  RH  080%=      5-min Rain = 0
KST2 191126Z 33012KT 03/M00 A3013 RMK A01 T00301001  RH  080%=      5-min Rain = 0
KST2 191127Z 33015KT 03/M00 A3013 RMK A01 T00301001  RH  080%=      5-min Rain = 0
KST2 191128Z 33015KT 03/M00 A3013 RMK A01 T00301002  RH  079%=      5-min Rain = 0
KST2 191129Z 32015KT 03/M00 A3013 RMK A01 T00301002  RH  079%=      5-min Rain = 0
KST2 191130Z 32016KT 03/M00 A3013 RMK A01 T00311001  RH  079%=      5-min Rain = 0
KST2 191131Z 33015KT 03/M00 A3013 RMK A01 T00311002  RH  079%=      5-min Rain = 0
KST2 191132Z 33016KT 03/M00 A3013 RMK A01 T00311003  RH  078%=      5-min Rain = 0
KST2 191133Z 32017KT 03/M00 A3013 RMK A01 T00311003  RH  078%=      5-min Rain = 0
KST2 191134Z 33017KT 03/M00 A3013 RMK A01 T00321003  RH  078%=      5-min Rain = 0
KST2 191135Z 32019KT 03/M01 A3013 RMK A01 T00321005  RH  077%=      5-min Rain = 0
KST2 191136Z 33018KT 03/M01 A3013 RMK A01 T00321005  RH  077%=      5-min Rain = 0
KST2 191137Z 32018KT 03/M00 A3013 RMK A01 T00321004  RH  077%=      5-min Rain = 0
KST2 191138Z 33021KT 03/M01 A3013 RMK A01 T00321006  RH  076%=      5-min Rain = 0
KST2 191139Z 33021KT 03/M01 A3013 RMK A01 T00321009  RH  074%=      5-min Rain = 0
KST2 191140Z 33019KT 03/M01 A3014 RMK A01 T00321009  RH  074%=      5-min Rain = 0
KST2 191141Z 33017KT 03/M01 A3014 RMK A01 T00321009  RH  074%=      5-min Rain = 0
KST2 191142Z 33018G24KT 03/M01 A3014 RMK A01 T00331007  RH  075%=      5-min Rain = 0
KST2 191143Z 33022G29KT 03/M01 A3014 RMK A01 T00321010  RH  074%=      5-min Rain = 0
KST2 191144Z 32025KT 03/M01 A3014 RMK A01 T00321013  RH  072%=      5-min Rain = 0
KST2 191145Z 33023KT 03/M01 A3014 RMK A01 T00321014  RH  072%=      5-min Rain = 0
KST2 191146Z 33025G31KT 03/M02 A3014 RMK A01 T00321016  RH  071%=      5-min Rain = 0
KST2 191147Z 33021G26KT 03/M02 A3015 RMK A01 T00321016  RH  071%=      5-min Rain = 0
KST2 191148Z 33020KT 03/M02 A3015 RMK A01 T00311015  RH  072%=      5-min Rain = 0
KST2 191149Z 33018KT 03/M01 A3015 RMK A01 T00311014  RH  072%=      5-min Rain = 0
KST2 191150Z 33024G29KT 03/M01 A3015 RMK A01 T00311014  RH  072%=      5-min Rain = 0
KST2 191151Z 33025KT 03/M02 A3015 RMK A01 T00311017  RH  071%=      5-min Rain = 0
KST2 191152Z 33025G30KT 03/M02 A3015 RMK A01 T00301019  RH  070%=      5-min Rain = 0
KST2 191153Z 33019G24KT 03/M02 A3015 RMK A01 T00311017  RH  071%=      5-min Rain = 0
KST2 191154Z 33017G22KT 03/M02 A3015 RMK A01 T00301015  RH  072%=      5-min Rain = 0
KST2 191155Z 33019KT 03/M02 A3015 RMK A01 T00301015  RH  072%=      5-min Rain = 0
KST2 191156Z 33020KT 03/M02 A3015 RMK A01 T00301017  RH  071%=      5-min Rain = 0
KST2 191157Z 33020KT 03/M02 A3016 RMK A01 T00301016  RH  072%=      5-min Rain = 0
KST2 191158Z 33019G24KT 03/M02 A3016 RMK A01 T00301016  RH  072%=      5-min Rain = 0
KST2 191159Z 33019KT 03/M02 A3016 RMK A01 T00291016  RH  072%=      5-min Rain = 0
KST2 191200Z 34020KT 03/M02 A3016 RMK A01 T00291017  RH  072%=      5-min Rain = 0
KST2 191201Z 34019KT 03/M02 A3016 RMK A01 T00291018  RH  071%=      5-min Rain = 0
KST2 191202Z 33021KT 03/M02 A3016 RMK A01 T00291017  RH  072%=      5-min Rain = 0
KST2 191203Z 34020KT 03/M02 A3016 RMK A01 T00291018  RH  071%=      5-min Rain = 0
KST2 191204Z 33020KT 03/M02 A3017 RMK A01 T00291019  RH  071%=      5-min Rain = 0
KST2 191205Z 33019KT 03/M02 A3017 RMK A01 T00291018  RH  071%=      5-min Rain = 0
KST2 191206Z 33022G27KT 03/M02 A3016 RMK A01 T00291020  RH  070%=      5-min Rain = 0
KST2 191207Z 33021G27KT 03/M02 A3017 RMK A01 T00281021  RH  070%=      5-min Rain = 0
KST2 191208Z 33019G24KT 03/M02 A3017 RMK A01 T00281021  RH  070%=      5-min Rain = 0
KST2 191209Z 33022KT 03/M02 A3017 RMK A01 T00281021  RH  070%=      5-min Rain = 0
KST2 191210Z 34025G30KT 03/M02 A3017 RMK A01 T00271023  RH  069%=      5-min Rain = 0
KST2 191211Z 34027G32KT 03/M03 A3017 RMK A01 T00271025  RH  069%=      5-min Rain = 0
KST2 191212Z 34024G29KT 03/M03 A3017 RMK A01 T00271025  RH  068%=      5-min Rain = 0
KST2 191213Z 33024KT 03/M03 A3017 RMK A01 T00271025  RH  069%=      5-min Rain = 0
KST2 191214Z 34023G29KT 03/M03 A3017 RMK A01 T00271025  RH  069%=      5-min Rain = 0
KST2 191215Z 34019G26KT 03/M03 A3017 RMK A01 T00261025  RH  069%=      5-min Rain = 0
KST2 191216Z 33021G26KT 03/M02 A3017 RMK A01 T00261023  RH  070%=      5-min Rain = 0
KST2 191217Z 34019G25KT 03/M03 A3018 RMK A01 T00251025  RH  070%=      5-min Rain = 0
KST2 191218Z 35025G30KT 03/M03 A3018 RMK A01 T00251025  RH  070%=      5-min Rain = 0
KST2 191219Z 34022G27KT 03/M03 A3018 RMK A01 T00251028  RH  068%=      5-min Rain = 0
KST2 191220Z 34021KT 02/M03 A3018 RMK A01 T00241027  RH  069%=      5-min Rain = 0
KST2 191221Z 34024KT 02/M03 A3018 RMK A01 T00241027  RH  069%=      5-min Rain = 0
KST2 191222Z 34020KT 02/M03 A3018 RMK A01 T00241028  RH  069%=      5-min Rain = 0
KST2 191223Z 34023G28KT 02/M03 A3018 RMK A01 T00241027  RH  069%=      5-min Rain = 0
KST2 191224Z 34019G24KT 02/M03 A3018 RMK A01 T00231028  RH  069%=      5-min Rain = 0
KST2 191225Z 34019G24KT 02/M03 A3018 RMK A01 T00231026  RH  070%=      5-min Rain = 0
KST2 191226Z 34020KT 02/M03 A3018 RMK A01 T00221027  RH  070%=      5-min Rain = 0
KST2 191227Z 34018KT 02/M03 A3018 RMK A01 T00221026  RH  071%=      5-min Rain = 0
KST2 191228Z 34017KT 02/M03 A3018 RMK A01 T00221025  RH  071%=      5-min Rain = 0
KST2 191229Z 34021KT 02/M03 A3019 RMK A01 T00211026  RH  071%=      5-min Rain = 0
KST2 191230Z 34022KT 02/M03 A3019 RMK A01 T00211028  RH  070%=      5-min Rain = 0
KST2 191231Z 34019KT 02/M03 A3019 RMK A01 T00211029  RH  070%=      5-min Rain = 0
KST2 191232Z 33020KT 02/M03 A3019 RMK A01 T00211027  RH  070%=      5-min Rain = 0
KST2 191233Z 34018KT 02/M03 A3019 RMK A01 T00201028  RH  070%=      5-min Rain = 0
KST2 191234Z 34018G24KT 02/M03 A3019 RMK A01 T00201027  RH  071%=      5-min Rain = 0
KST2 191235Z 34017KT 02/M03 A3019 RMK A01 T00201027  RH  071%=      5-min Rain = 0
KST2 191236Z 34020KT 02/M03 A3019 RMK A01 T00191027  RH  071%=      5-min Rain = 0
KST2 191237Z 33019KT 02/M03 A3019 RMK A01 T00191028  RH  071%=      5-min Rain = 0
KST2 191238Z 33020KT 02/M03 A3019 RMK A01 T00191028  RH  071%=      5-min Rain = 0
KST2 191239Z 33020KT 02/M03 A302 RMK A01 T00191028  RH  071%=      5-min Rain = 0
KST2 191240Z 33017KT 02/M03 A302 RMK A01 T00181028  RH  072%=      5-min Rain = 0
KST2 191241Z 33017KT 02/M03 A302 RMK A01 T00181027  RH  072%=      5-min Rain = 0
KST2 191242Z 33015G20KT 02/M03 A302 RMK A01 T00181025  RH  073%=      5-min Rain = 0
KST2 191243Z 33018KT 02/M03 A302 RMK A01 T00171025  RH  073%=      5-min Rain = 0
KST2 191244Z 33016KT 02/M03 A302 RMK A01 T00171025  RH  073%=      5-min Rain = 0
KST2 191245Z 33016KT 02/M02 A302 RMK A01 T00171024  RH  074%=      5-min Rain = 0
KST2 191246Z 33020KT 02/M03 A302 RMK A01 T00171025  RH  074%=      5-min Rain = 0
KST2 191247Z 33020KT 02/M03 A302 RMK A01 T00171026  RH  073%=      5-min Rain = 0
KST2 191248Z 33017KT 02/M03 A302 RMK A01 T00171027  RH  073%=      5-min Rain = 0
KST2 191249Z 34016KT 02/M03 A302 RMK A01 T00171026  RH  073%=      5-min Rain = 0
KST2 191250Z 33018KT 02/M03 A302 RMK A01 T00161026  RH  074%=      5-min Rain = 0
KST2 191251Z 33020G26KT 02/M03 A302 RMK A01 T00161026  RH  073%=      5-min Rain = 0
KST2 191252Z 33021KT 02/M03 A302 RMK A01 T00161028  RH  072%=      5-min Rain = 0
KST2 191253Z 33020G25KT 02/M03 A302 RMK A01 T00161029  RH  072%=      5-min Rain = 0
KST2 191254Z 33018KT 02/M03 A3021 RMK A01 T00161028  RH  072%=      5-min Rain = 0
KST2 191255Z 33017KT 02/M03 A3021 RMK A01 T00161027  RH  073%=      5-min Rain = 0
KST2 191256Z 33017G22KT 02/M03 A3021 RMK A01 T00161027  RH  073%=      5-min Rain = 0
KST2 191257Z 33019KT 02/M03 A3021 RMK A01 T00151028  RH  073%=      5-min Rain = 0
KST2 191258Z 33023KT 01/M03 A3021 RMK A01 T00141030  RH  072%=      5-min Rain = 0
KST2 191259Z 32019KT 01/M03 A3021 RMK A01 T00141031  RH  072%=      5-min Rain = 0
KST2 191300Z 33018KT 01/M03 A3021 RMK A01 T00141031  RH  072%=      5-min Rain = 0
KST2 191301Z 33019KT 01/M03 A3021 RMK A01 T00131031  RH  072%=      5-min Rain = 0
KST2 191302Z 33019KT 01/M03 A3021 RMK A01 T00131032  RH  072%=      5-min Rain = 0
KST2 191303Z 33016KT 01/M03 A3021 RMK A01 T00121032  RH  073%=      5-min Rain = 0
KST2 191304Z 34017KT 01/M03 A3021 RMK A01 T00121032  RH  073%=      5-min Rain = 0
KST2 191305Z 33016G21KT 01/M03 A3021 RMK A01 T00121032  RH  072%=      5-min Rain = 0
KST2 191306Z 34017G22KT 01/M03 A3021 RMK A01 T00121031  RH  073%=      5-min Rain = 0
KST2 191307Z 33016KT 01/M03 A3021 RMK A01 T00121032  RH  073%=      5-min Rain = 0
KST2 191308Z 34016KT 01/M03 A3021 RMK A01 T00111031  RH  073%=      5-min Rain = 0
KST2 191309Z 34016KT 01/M03 A3021 RMK A01 T00111031  RH  073%=      5-min Rain = 0
KST2 191310Z 34018KT 01/M03 A3021 RMK A01 T00111032  RH  073%=      5-min Rain = 0
KST2 191311Z 34020G27KT 01/M03 A3021 RMK A01 T00121033  RH  072%=      5-min Rain = 0
KST2 191312Z 33018G24KT 01/M03 A3021 RMK A01 T00111034  RH  072%=      5-min Rain = 0
KST2 191313Z 33020G29KT 01/M03 A3021 RMK A01 T00111033  RH  072%=      5-min Rain = 0
KST2 191314Z 33023KT 01/M04 A3021 RMK A01 T00111035  RH  072%=      5-min Rain = 0
KST2 191315Z 33020G26KT 01/M04 A3021 RMK A01 T00111035  RH  071%=      5-min Rain = 0
KST2 191316Z 33024KT 01/M04 A3021 RMK A01 T00111035  RH  071%=      5-min Rain = 0
KST2 191317Z 33020G26KT 01/M04 A3021 RMK A01 T00111036  RH  071%=      5-min Rain = 0
KST2 191318Z 34018KT 01/M03 A3021 RMK A01 T00111034  RH  072%=      5-min Rain = 0
KST2 191319Z 34018KT 01/M03 A3021 RMK A01 T00111034  RH  072%=      5-min Rain = 0
KST2 191320Z 34016KT 01/M03 A3021 RMK A01 T00101034  RH  072%=      5-min Rain = 0
KST2 191321Z 33020KT 01/M03 A3021 RMK A01 T00091034  RH  073%=      5-min Rain = 0
KST2 191322Z 33018KT 01/M04 A3021 RMK A01 T00091035  RH  072%=      5-min Rain = 0
KST2 191323Z 34020G26KT 01/M03 A3021 RMK A01 T00101034  RH  073%=      5-min Rain = 0
KST2 191324Z 33021KT 01/M04 A3021 RMK A01 T00091036  RH  072%=      5-min Rain = 0
KST2 191325Z 33019KT 01/M04 A3021 RMK A01 T00091036  RH  072%=      5-min Rain = 0
KST2 191326Z 34019KT 01/M04 A3021 RMK A01 T00091035  RH  072%=      5-min Rain = 0
KST2 191327Z 34021KT 01/M04 A3021 RMK A01 T00091035  RH  072%=      5-min Rain = 0
KST2 191328Z 34020KT 01/M04 A3021 RMK A01 T00091036  RH  072%=      5-min Rain = 0
KST2 191329Z 34019G24KT 01/M04 A3021 RMK A01 T00091036  RH  072%=      5-min Rain = 0
KST2 191330Z 34018KT 01/M04 A3021 RMK A01 T00091036  RH  072%=      5-min Rain = 0
KST2 191331Z 34017KT 01/M04 A3021 RMK A01 T00091035  RH  073%=      5-min Rain = 0
KST2 191332Z 34019KT 01/M04 A3021 RMK A01 T00081035  RH  073%=      5-min Rain = 0
KST2 191333Z 34019G24KT 01/M04 A3022 RMK A01 T00081036  RH  072%=      5-min Rain = 0
KST2 191334Z 34020KT 01/M04 A3022 RMK A01 T00081037  RH  072%=      5-min Rain = 0
KST2 191335Z 34016KT 01/M04 A3022 RMK A01 T00081037  RH  072%=      5-min Rain = 0
KST2 191336Z 34017KT 01/M04 A3022 RMK A01 T00081035  RH  073%=      5-min Rain = 0
KST2 191337Z 34018G24KT 01/M04 A3022 RMK A01 T00071036  RH  073%=      5-min Rain = 0
KST2 191338Z 34016KT 01/M04 A3022 RMK A01 T00081036  RH  072%=      5-min Rain = 0
KST2 191339Z 33015KT 01/M04 A3022 RMK A01 T00081035  RH  073%=      5-min Rain = 0
KST2 191340Z 34016KT 01/M03 A3022 RMK A01 T00071034  RH  074%=      5-min Rain = 0
KST2 191341Z 33018KT 01/M04 A3022 RMK A01 T00071035  RH  073%=      5-min Rain = 0
KST2 191342Z 34016KT 01/M04 A3022 RMK A01 T00071036  RH  073%=      5-min Rain = 0
KST2 191343Z 34016KT 01/M04 A3022 RMK A01 T00071036  RH  073%=      5-min Rain = 0
KST2 191344Z 34013KT 01/M04 A3022 RMK A01 T00071035  RH  073%=      5-min Rain = 0
KST2 191345Z 34015G21KT 01/M04 A3022 RMK A01 T00071035  RH  074%=      5-min Rain = 0
KST2 191346Z 34016KT 01/M04 A3022 RMK A01 T00071036  RH  073%=      5-min Rain = 0
KST2 191347Z 34017KT 01/M04 A3022 RMK A01 T00071036  RH  073%=      5-min Rain = 0
KST2 191348Z 34017KT 01/M04 A3022 RMK A01 T00071036  RH  073%=      5-min Rain = 0
KST2 191349Z 34015KT 01/M04 A3022 RMK A01 T00071036  RH  073%=      5-min Rain = 0
KST2 191350Z 33015KT 01/M04 A3022 RMK A01 T00061036  RH  073%=      5-min Rain = 0
KST2 191351Z 33013KT 01/M04 A3022 RMK A01 T00071035  RH  073%=      5-min Rain = 0
KST2 191352Z 33014KT 01/M04 A3022 RMK A01 T00071035  RH  074%=      5-min Rain = 0
KST2 191353Z 33014KT 01/M04 A3023 RMK A01 T00071035  RH  074%=      5-min Rain = 0
KST2 191354Z 33012KT 01/M04 A3023 RMK A01 T00071035  RH  074%=      5-min Rain = 0
KST2 191355Z 33012KT 01/M03 A3023 RMK A01 T00071034  RH  074%=      5-min Rain = 0
KST2 191356Z 33011G16KT 01/M03 A3023 RMK A01 T00071034  RH  074%=      5-min Rain = 0
KST2 191357Z 33012KT 01/M03 A3023 RMK A01 T00071033  RH  075%=      5-min Rain = 0
KST2 191358Z 33013KT 01/M03 A3023 RMK A01 T00061033  RH  075%=      5-min Rain = 0
KST2 191359Z 33011KT 01/M03 A3023 RMK A01 T00061034  RH  074%=      5-min Rain = 0
KST2 191400Z 32012G17KT 01/M03 A3023 RMK A01 T00071034  RH  074%=      5-min Rain = 0
KST2 191401Z 33012KT 01/M04 A3023 RMK A01 T00061035  RH  074%=      5-min Rain = 0
KST2 191402Z 32011KT 01/M04 A3023 RMK A01 T00061035  RH  074%=      5-min Rain = 0
KST2 191403Z 32012KT 01/M04 A3023 RMK A01 T00061035  RH  074%=      5-min Rain = 0
KST2 191404Z 32011KT 01/M04 A3023 RMK A01 T00061035  RH  074%=      5-min Rain = 0
KST2 191405Z 32011KT 01/M03 A3024 RMK A01 T00071034  RH  074%=      5-min Rain = 0
KST2 191406Z 32009KT 01/M03 A3024 RMK A01 T00071032  RH  075%=      5-min Rain = 0
KST2 191407Z 32010KT 01/M03 A3024 RMK A01 T00071031  RH  076%=      5-min Rain = 0
KST2 191408Z 32012KT 01/M03 A3024 RMK A01 T00071032  RH  075%=      5-min Rain = 0
KST2 191409Z 32011KT 01/M03 A3024 RMK A01 T00071033  RH  075%=      5-min Rain = 0
KST2 191410Z 32010KT 01/M03 A3024 RMK A01 T00071032  RH  075%=      5-min Rain = 0
KST2 191411Z 32010KT 01/M03 A3024 RMK A01 T00071033  RH  075%=      5-min Rain = 0
KST2 191412Z 32010KT 01/M03 A3024 RMK A01 T00071033  RH  075%=      5-min Rain = 0
KST2 191413Z 32010KT 01/M03 A3024 RMK A01 T00071033  RH  075%=      5-min Rain = 0
KST2 191414Z 32011KT 01/M03 A3024 RMK A01 T00071032  RH  075%=      5-min Rain = 0
KST2 191415Z 32011KT 01/M03 A3024 RMK A01 T00071032  RH  075%=      5-min Rain = 0
KST2 191416Z 32011KT 01/M03 A3024 RMK A01 T00071033  RH  074%=      5-min Rain = 0
KST2 191417Z 31011KT 01/M03 A3024 RMK A01 T00081032  RH  075%=      5-min Rain = 0
KST2 191418Z 32010KT 01/M03 A3024 RMK A01 T00081032  RH  074%=      5-min Rain = 0
KST2 191419Z 31011KT 01/M03 A3024 RMK A01 T00081032  RH  075%=      5-min Rain = 0
KST2 191420Z 32012KT 01/M03 A3024 RMK A01 T00091032  RH  074%=      5-min Rain = 0
KST2 191421Z 32012KT 01/M03 A3024 RMK A01 T00091032  RH  074%=      5-min Rain = 0
KST2 191422Z 32012KT 01/M03 A3025 RMK A01 T00091032  RH  074%=      5-min Rain = 0
KST2 191423Z 32012KT 01/M03 A3025 RMK A01 T00091033  RH  074%=      5-min Rain = 0
KST2 191424Z 32012KT 01/M03 A3025 RMK A01 T00101032  RH  074%=      5-min Rain = 0
KST2 191425Z 32011KT 01/M03 A3025 RMK A01 T00101032  RH  073%=      5-min Rain = 0
KST2 191426Z 32011KT 01/M03 A3025 RMK A01 T00101031  RH  074%=      5-min Rain = 0
KST2 191427Z 32011KT 01/M03 A3025 RMK A01 T00111031  RH  074%=      5-min Rain = 0
KST2 191428Z 31013KT 01/M03 A3025 RMK A01 T00111031  RH  074%=      5-min Rain = 0
KST2 191429Z 32012G17KT 01/M03 A3025 RMK A01 T00121032  RH  073%=      5-min Rain = 0
KST2 191430Z 32015KT 01/M03 A3025 RMK A01 T00121032  RH  072%=      5-min Rain = 0
KST2 191431Z 32016KT 01/M04 A3025 RMK A01 T00121035  RH  071%=      5-min Rain = 0
KST2 191432Z 32016KT 01/M04 A3025 RMK A01 T00121036  RH  070%=      5-min Rain = 0
KST2 191433Z 32015KT 01/M04 A3025 RMK A01 T00121035  RH  071%=      5-min Rain = 0
KST2 191434Z 32015KT 01/M03 A3025 RMK A01 T00131034  RH  071%=      5-min Rain = 0
KST2 191435Z 32018KT 01/M04 A3025 RMK A01 T00131035  RH  071%=      5-min Rain = 0
KST2 191436Z 32017G22KT 01/M04 A3025 RMK A01 T00131036  RH  070%=      5-min Rain = 0
KST2 191437Z 32020KT 01/M04 A3025 RMK A01 T00131037  RH  069%=      5-min Rain = 0
KST2 191438Z 32018KT 01/M04 A3025 RMK A01 T00131036  RH  069%=      5-min Rain = 0
KST2 191439Z 33015KT 01/M03 A3025 RMK A01 T00131034  RH  071%=      5-min Rain = 0
KST2 191440Z 33018KT 01/M03 A3025 RMK A01 T00141034  RH  071%=      5-min Rain = 0
KST2 191441Z 32016KT 01/M04 A3025 RMK A01 T00141035  RH  070%=      5-min Rain = 0
KST2 191442Z 32017G22KT 01/M03 A3025 RMK A01 T00141033  RH  071%=      5-min Rain = 0
KST2 191443Z 33017KT 01/M04 A3025 RMK A01 T00141035  RH  070%=      5-min Rain = 0
KST2 191444Z 33019KT 01/M04 A3025 RMK A01 T00141035  RH  070%=      5-min Rain = 0
KST2 191445Z 33018KT 01/M04 A3025 RMK A01 T00141036  RH  069%=      5-min Rain = 0
KST2 191446Z 33015G21KT 01/M04 A3025 RMK A01 T00141035  RH  070%=      5-min Rain = 0
KST2 191447Z 33020KT 02/M04 A3025 RMK A01 T00151035  RH  069%=      5-min Rain = 0
KST2 191448Z 33017KT 01/M04 A3025 RMK A01 T00141037  RH  069%=      5-min Rain = 0
KST2 191449Z 33018KT 02/M04 A3025 RMK A01 T00151036  RH  069%=      5-min Rain = 0
KST2 191450Z 33018KT 01/M04 A3026 RMK A01 T00141037  RH  068%=      5-min Rain = 0
KST2 191451Z 33018KT 02/M04 A3026 RMK A01 T00151036  RH  069%=      5-min Rain = 0
KST2 191452Z 33016KT 02/M04 A3026 RMK A01 T00151036  RH  069%=      5-min Rain = 0
KST2 191453Z 33016KT 02/M03 A3026 RMK A01 T00161033  RH  070%=      5-min Rain = 0
KST2 191454Z 34019KT 02/M04 A3026 RMK A01 T00161036  RH  068%=      5-min Rain = 0
KST2 191455Z 33016KT 02/M04 A3026 RMK A01 T00161036  RH  068%=      5-min Rain = 0
KST2 191456Z 33018G23KT 02/M04 A3026 RMK A01 T00161036  RH  068%=      5-min Rain = 0
KST2 191457Z 33020KT 02/M04 A3026 RMK A01 T00161038  RH  067%=      5-min Rain = 0
KST2 191458Z 33016KT 02/M04 A3026 RMK A01 T00161038  RH  067%=      5-min Rain = 0
KST2 191459Z 33016G21KT 02/M04 A3026 RMK A01 T00161036  RH  068%=      5-min Rain = 0
KST2 191500Z 33021KT 02/M04 A3027 RMK A01 T00171037  RH  068%=      5-min Rain = 0
KST2 191501Z 33022KT 02/M04 A3027 RMK A01 T00171038  RH  067%=      5-min Rain = 0
KST2 191502Z 33024KT 02/M04 A3027 RMK A01 T00171040  RH  066%=      5-min Rain = 0
KST2 191503Z 33020KT 02/M04 A3027 RMK A01 T00161040  RH  066%=      5-min Rain = 0
KST2 191504Z 33019KT 02/M04 A3027 RMK A01 T00161040  RH  066%=      5-min Rain = 0
KST2 191505Z 33022KT 02/M04 A3027 RMK A01 T00161040  RH  066%=      5-min Rain = 0
KST2 191506Z 33022KT 02/M04 A3027 RMK A01 T00171041  RH  066%=      5-min Rain = 0
KST2 191507Z 33020G26KT 02/M04 A3027 RMK A01 T00171041  RH  066%=      5-min Rain = 0
KST2 191508Z 33025G31KT 02/M04 A3027 RMK A01 T00171041  RH  065%=      5-min Rain = 0
KST2 191509Z 33024G30KT 02/M04 A3027 RMK A01 T00171044  RH  064%=      5-min Rain = 0
KST2 191510Z 34020G25KT 02/M04 A3027 RMK A01 T00171043  RH  065%=      5-min Rain = 0
KST2 191511Z 33024G30KT 02/M04 A3027 RMK A01 T00181043  RH  064%=      5-min Rain = 0
KST2 191512Z 33023G28KT 02/M04 A3027 RMK A01 T00181042  RH  064%=      5-min Rain = 0
KST2 191513Z 33023G29KT 02/M04 A3027 RMK A01 T00181043  RH  064%=      5-min Rain = 0
KST2 191514Z 33019G24KT 02/M04 A3028 RMK A01 T00181041  RH  065%=      5-min Rain = 0
KST2 191515Z 33026KT 02/M04 A3027 RMK A01 T00181042  RH  064%=      5-min Rain = 0
KST2 191516Z 33022KT 02/M04 A3028 RMK A01 T00191044  RH  063%=      5-min Rain = 0
KST2 191517Z 33021KT 02/M04 A3028 RMK A01 T00191043  RH  064%=      5-min Rain = 0
KST2 191518Z 33018KT 02/M04 A3028 RMK A01 T00191041  RH  064%=      5-min Rain = 0
KST2 191519Z 34018G23KT 02/M04 A3028 RMK A01 T00201037  RH  066%=      5-min Rain = 0
KST2 191520Z 34022G28KT 02/M04 A3028 RMK A01 T00201041  RH  064%=      5-min Rain = 0
KST2 191521Z 33021KT 02/M04 A3028 RMK A01 T00201040  RH  064%=      5-min Rain = 0
KST2 191522Z 33021G26KT 02/M04 A3028 RMK A01 T00201042  RH  063%=      5-min Rain = 0
KST2 191523Z 33025KT 02/M04 A3028 RMK A01 T00201044  RH  062%=      5-min Rain = 0
KST2 191524Z 33023G28KT 02/M05 A3028 RMK A01 T00191045  RH  062%=      5-min Rain = 0
KST2 191525Z 33021KT 02/M04 A3028 RMK A01 T00201042  RH  064%=      5-min Rain = 0
KST2 191526Z 33022KT 02/M04 A3028 RMK A01 T00201041  RH  064%=      5-min Rain = 0
KST2 191527Z 33024KT 02/M04 A3028 RMK A01 T00201043  RH  063%=      5-min Rain = 0
KST2 191528Z 33019G24KT 02/M04 A3029 RMK A01 T00211042  RH  063%=      5-min Rain = 0
KST2 191529Z 33022G27KT 02/M04 A3029 RMK A01 T00211040  RH  064%=      5-min Rain = 0
KST2 191530Z 34024KT 02/M04 A3029 RMK A01 T00211042  RH  063%=      5-min Rain = 0
KST2 191531Z 34024KT 02/M05 A3029 RMK A01 T00211045  RH  062%=      5-min Rain = 0
KST2 191532Z 34021KT 02/M04 A3029 RMK A01 T00211044  RH  062%=      5-min Rain = 0
KST2 191533Z 34022KT 02/M04 A3029 RMK A01 T00211042  RH  063%=      5-min Rain = 0
KST2 191534Z 34021G26KT 02/M04 A3029 RMK A01 T00211044  RH  062%=      5-min Rain = 0
KST2 191535Z 33022KT 02/M04 A3029 RMK A01 T00221042  RH  063%=      5-min Rain = 0
KST2 191536Z 33020G25KT 02/M04 A3029 RMK A01 T00221042  RH  063%=      5-min Rain = 0
KST2 191537Z 34021KT 02/M04 A3029 RMK A01 T00221040  RH  063%=      5-min Rain = 0
KST2 191538Z 34022G28KT 02/M04 A303 RMK A01 T00231042  RH  062%=      5-min Rain = 0
KST2 191539Z 33022KT 02/M04 A303 RMK A01 T00231043  RH  062%=      5-min Rain = 0
KST2 191540Z 33022G27KT 02/M04 A303 RMK A01 T00231043  RH  062%=      5-min Rain = 0
KST2 191541Z 33019G28KT 02/M04 A303 RMK A01 T00221040  RH  063%=      5-min Rain = 0
KST2 191542Z 33024KT 02/M04 A303 RMK A01 T00241040  RH  063%=      5-min Rain = 0
KST2 191543Z 33023KT 02/M04 A303 RMK A01 T00241042  RH  062%=      5-min Rain = 0
KST2 191544Z 33021KT 02/M04 A303 RMK A01 T00231042  RH  062%=      5-min Rain = 0
KST2 191545Z 33023G28KT 02/M04 A303 RMK A01 T00231041  RH  062%=      5-min Rain = 0
KST2 191546Z 33023KT 02/M04 A303 RMK A01 T00231043  RH  061%=      5-min Rain = 0
KST2 191547Z 33023G28KT 02/M04 A303 RMK A01 T00231042  RH  062%=      5-min Rain = 0
KST2 191548Z 33025KT 02/M04 A303 RMK A01 T00231044  RH  061%=      5-min Rain = 0
KST2 191549Z 34024KT 02/M04 A303 RMK A01 T00231043  RH  062%=      5-min Rain = 0
KST2 191550Z 34022KT 02/M04 A303 RMK A01 T00231043  RH  062%=      5-min Rain = 0
KST2 191551Z 33022KT 02/M04 A303 RMK A01 T00231041  RH  062%=      5-min Rain = 0
KST2 191552Z 33023KT 02/M04 A303 RMK A01 T00241041  RH  062%=      5-min Rain = 0
KST2 191553Z 33020G25KT 02/M04 A303 RMK A01 T00231043  RH  062%=      5-min Rain = 0
KST2 191554Z 34023G28KT 02/M04 A303 RMK A01 T00241041  RH  062%=      5-min Rain = 0
KST2 191555Z 34020KT 02/M04 A303 RMK A01 T00241041  RH  062%=      5-min Rain = 0
KST2 191556Z 34021KT 02/M04 A3031 RMK A01 T00241042  RH  062%=      5-min Rain = 0
KST2 191557Z 34020KT 02/M04 A303 RMK A01 T00241042  RH  061%=      5-min Rain = 0
KST2 191558Z 34019KT 02/M04 A3031 RMK A01 T00241041  RH  062%=      5-min Rain = 0
KST2 191559Z 34021G26KT 03/M04 A3031 RMK A01 T00251037  RH  063%=      5-min Rain = 0
KST2 191600Z 33018KT 03/M04 A3031 RMK A01 T00251043  RH  061%=      5-min Rain = 0
KST2 191601Z 35021KT 03/M04 A3031 RMK A01 T00251040  RH  062%=      5-min Rain = 0
KST2 191602Z 34025KT 03/M04 A3031 RMK A01 T00261041  RH  062%=      5-min Rain = 0
KST2 191603Z 34024KT 03/M04 A3031 RMK A01 T00251043  RH  061%=      5-min Rain = 0
KST2 191604Z 34023G29KT 03/M04 A3031 RMK A01 T00251043  RH  061%=      5-min Rain = 0
KST2 191605Z 34022KT 03/M04 A3031 RMK A01 T00251041  RH  062%=      5-min Rain = 0
KST2 191606Z 34019G25KT 03/M04 A3031 RMK A01 T00251040  RH  062%=      5-min Rain = 0
KST2 191607Z 33019KT 03/M04 A3031 RMK A01 T00261038  RH  063%=      5-min Rain = 0
KST2 191608Z 33021KT 03/M04 A3031 RMK A01 T00271037  RH  063%=      5-min Rain = 0
KST2 191609Z 33022KT 03/M04 A3031 RMK A01 T00271038  RH  062%=      5-min Rain = 0
KST2 191610Z 34022KT 03/M04 A3031 RMK A01 T00271041  RH  061%=      5-min Rain = 0
KST2 191611Z 34019KT 03/M04 A3031 RMK A01 T00271039  RH  062%=      5-min Rain = 0
KST2 191612Z 33015KT 03/M03 A3031 RMK A01 T00281034  RH  064%=      5-min Rain = 0
KST2 191613Z 33020G26KT 03/M03 A3031 RMK A01 T00291034  RH  063%=      5-min Rain = 0
KST2 191614Z 34020KT 03/M04 A3031 RMK A01 T00291036  RH  062%=      5-min Rain = 0
KST2 191615Z 34020KT 03/M04 A3031 RMK A01 T00291039  RH  061%=      5-min Rain = 0
KST2 191616Z 32023KT 03/M04 A3031 RMK A01 T00281038  RH  062%=      5-min Rain = 0
KST2 191617Z 33021KT 03/M04 A3031 RMK A01 T00281038  RH  062%=      5-min Rain = 0
KST2 191618Z 32020KT 03/M04 A3031 RMK A01 T00281038  RH  062%=      5-min Rain = 0
KST2 191619Z 33022G28KT 03/M04 A3031 RMK A01 T00281037  RH  062%=      5-min Rain = 0
KST2 191620Z 33021G26KT 03/M04 A3031 RMK A01 T00291036  RH  062%=      5-min Rain = 0
KST2 191621Z 33023KT 03/M04 A3031 RMK A01 T00301038  RH  061%=      5-min Rain = 0
KST2 191622Z 32021G27KT 03/M04 A3031 RMK A01 T00301038  RH  061%=      5-min Rain = 0
KST2 191623Z 33022KT 03/M04 A3031 RMK A01 T00301039  RH  061%=      5-min Rain = 0
KST2 191624Z 33021KT 03/M04 A3032 RMK A01 T00291039  RH  061%=      5-min Rain = 0
KST2 191625Z 33024KT 03/M04 A3032 RMK A01 T00301040  RH  060%=      5-min Rain = 0
KST2 191626Z 34020KT 03/M04 A3032 RMK A01 T00301037  RH  061%=      5-min Rain = 0
KST2 191627Z 33020KT 03/M04 A3032 RMK A01 T00301038  RH  061%=      5-min Rain = 0
KST2 191628Z 33020KT 03/M04 A3032 RMK A01 T00311037  RH  061%=      5-min Rain = 0
KST2 191629Z 33023KT 03/M03 A3032 RMK A01 T00321034  RH  062%=      5-min Rain = 0
KST2 191630Z 33024KT 03/M04 A3032 RMK A01 T00321039  RH  060%=      5-min Rain = 0
KST2 191631Z 33024KT 03/M04 A3032 RMK A01 T00311041  RH  059%=      5-min Rain = 0
KST2 191632Z 33021KT 03/M04 A3032 RMK A01 T00311039  RH  060%=      5-min Rain = 0
KST2 191633Z 33025KT 03/M04 A3032 RMK A01 T00311041  RH  059%=      5-min Rain = 0
KST2 191634Z 33022KT 03/M04 A3032 RMK A01 T00311040  RH  060%=      5-min Rain = 0
KST2 191635Z 33024G30KT 03/M04 A3032 RMK A01 T00321039  RH  060%=      5-min Rain = 0
KST2 191636Z 33025G30KT 03/M04 A3032 RMK A01 T00321044  RH  057%=      5-min Rain = 0
KST2 191637Z 33024G30KT 03/M04 A3032 RMK A01 T00311044  RH  058%=      5-min Rain = 0
KST2 191638Z 33025G30KT 03/M04 A3032 RMK A01 T00311043  RH  058%=      5-min Rain = 0
KST2 191639Z 33023KT 03/M04 A3032 RMK A01 T00321042  RH  058%=      5-min Rain = 0
KST2 191640Z 34023KT 03/M04 A3032 RMK A01 T00321043  RH  058%=      5-min Rain = 0
KST2 191641Z 34023KT 03/M04 A3032 RMK A01 T00331041  RH  058%=      5-min Rain = 0
KST2 191642Z 34021KT 03/M04 A3032 RMK A01 T00331042  RH  058%=      5-min Rain = 0
KST2 191643Z 34025G32KT 03/M04 A3033 RMK A01 T00341040  RH  059%=      5-min Rain = 0
KST2 191644Z 34026KT 03/M04 A3033 RMK A01 T00341042  RH  058%=      5-min Rain = 0
KST2 191645Z 34022KT 03/M04 A3033 RMK A01 T00341041  RH  058%=      5-min Rain = 0
KST2 191646Z 34025G30KT 04/M04 A3033 RMK A01 T00351038  RH  059%=      5-min Rain = 0
KST2 191647Z 33023KT 03/M04 A3033 RMK A01 T00341042  RH  057%=      5-min Rain = 0
KST2 191648Z 33025KT 03/M04 A3032 RMK A01 T00341041  RH  058%=      5-min Rain = 0
KST2 191649Z 33025KT 03/M04 A3033 RMK A01 T00341043  RH  057%=      5-min Rain = 0
KST2 191650Z 34022G28KT 03/M04 A3033 RMK A01 T00341041  RH  058%=      5-min Rain = 0
KST2 191651Z 34022KT 04/M04 A3033 RMK A01 T00351040  RH  058%=      5-min Rain = 0
KST2 191652Z 34023KT 04/M04 A3033 RMK A01 T00361040  RH  058%=      5-min Rain = 0
KST2 191653Z 33025KT 04/M04 A3033 RMK A01 T00361039  RH  058%=      5-min Rain = 0
KST2 191654Z 33023KT 04/M04 A3033 RMK A01 T00361039  RH  058%=      5-min Rain = 0
KST2 191655Z 33020KT 04/M04 A3033 RMK A01 T00361038  RH  059%=      5-min Rain = 0
KST2 191656Z 33021G26KT 04/M04 A3033 RMK A01 T00371036  RH  059%=      5-min Rain = 0
KST2 191657Z 34023KT 04/M04 A3033 RMK A01 T00371038  RH  058%=      5-min Rain = 0
KST2 191658Z 34023KT 04/M04 A3033 RMK A01 T00371040  RH  057%=      5-min Rain = 0
KST2 191659Z 34018KT 04/M04 A3033 RMK A01 T00381036  RH  059%=      5-min Rain = 0
KST2 191700Z 33019G24KT 04/M03 A3033 RMK A01 T00401032  RH  060%=      5-min Rain = 0
KST2 191701Z 34021G26KT 04/M03 A3033 RMK A01 T00411031  RH  059%=      5-min Rain = 0
KST2 191702Z 34023G28KT 04/M04 A3033 RMK A01 T00401036  RH  058%=      5-min Rain = 0
KST2 191703Z 35021G27KT 04/M03 A3033 RMK A01 T00391034  RH  059%=      5-min Rain = 0
KST2 191704Z 34021KT 04/M03 A3033 RMK A01 T00401033  RH  059%=      5-min Rain = 0
KST2 191705Z 34019KT 04/M03 A3033 RMK A01 T00401033  RH  059%=      5-min Rain = 0
KST2 191706Z 33022G27KT 04/M03 A3032 RMK A01 T00411031  RH  059%=      5-min Rain = 0
KST2 191707Z 34020KT 04/M03 A3033 RMK A01 T00421033  RH  058%=      5-min Rain = 0
KST2 191708Z 34021KT 04/M03 A3033 RMK A01 T00411034  RH  058%=      5-min Rain = 0
KST2 191709Z 35021KT 04/M04 A3033 RMK A01 T00411035  RH  058%=      5-min Rain = 0
KST2 191710Z 33022KT 04/M03 A3033 RMK A01 T00411034  RH  058%=      5-min Rain = 0
KST2 191711Z 33023G29KT 04/M04 A3033 RMK A01 T00411035  RH  057%=      5-min Rain = 0
KST2 191712Z 33025KT 04/M04 A3032 RMK A01 T00411037  RH  057%=      5-min Rain = 0
KST2 191713Z 33021KT 04/M04 A3032 RMK A01 T00411037  RH  057%=      5-min Rain = 0
KST2 191714Z 33023G28KT 04/M03 A3032 RMK A01 T00411034  RH  058%=      5-min Rain = 0
KST2 191715Z 33024KT 04/M04 A3032 RMK A01 T00411036  RH  057%=      5-min Rain = 0
KST2 191716Z 33021G26KT 04/M04 A3032 RMK A01 T00411038  RH  056%=      5-min Rain = 0
KST2 191717Z 34022KT 04/M04 A3032 RMK A01 T00401038  RH  057%=      5-min Rain = 0
KST2 191718Z 33024KT 04/M04 A3032 RMK A01 T00411038  RH  057%=      5-min Rain = 0
KST2 191719Z 33021KT 04/M04 A3032 RMK A01 T00411038  RH  057%=      5-min Rain = 0
KST2 191720Z 33022G27KT 04/M03 A3032 RMK A01 T00431034  RH  057%=      5-min Rain = 0
KST2 191721Z 33019KT 04/M03 A3032 RMK A01 T00441032  RH  058%=      5-min Rain = 0
KST2 191722Z 33019KT 05/M03 A3032 RMK A01 T00451031  RH  058%=      5-min Rain = 0
KST2 191723Z 34020G25KT 05/M03 A3032 RMK A01 T00461031  RH  057%=      5-min Rain = 0
KST2 191724Z 34022G28KT 05/M03 A3032 RMK A01 T00461032  RH  057%=      5-min Rain = 0
KST2 191725Z 34025KT 05/M03 A3032 RMK A01 T00451034  RH  056%=      5-min Rain = 0
KST2 191726Z 34027KT 04/M04 A3032 RMK A01 T00441039  RH  055%=      5-min Rain = 0
KST2 191727Z 34028KT 04/M04 A3032 RMK A01 T00431043  RH  054%=      5-min Rain = 0
KST2 191728Z 34024G29KT 04/M04 A3032 RMK A01 T00431039  RH  055%=      5-min Rain = 0
KST2 191729Z 34026KT 04/M04 A3032 RMK A01 T00441040  RH  054%=      5-min Rain = 0
KST2 191730Z 34022KT 04/M04 A3032 RMK A01 T00431040  RH  055%=      5-min Rain = 0
KST2 191731Z 35022G27KT 05/M04 A3032 RMK A01 T00451035  RH  056%=      5-min Rain = 0
KST2 191732Z 34022KT 05/M04 A3032 RMK A01 T00451036  RH  055%=      5-min Rain = 0
KST2 191733Z 34024G29KT 05/M04 A3032 RMK A01 T00451035  RH  056%=      5-min Rain = 0
KST2 191734Z 34021KT 05/M04 A3032 RMK A01 T00451038  RH  055%=      5-min Rain = 0
KST2 191735Z 34025KT 05/M04 A3032 RMK A01 T00451037  RH  055%=      5-min Rain = 0
KST2 191736Z 34027KT 05/M04 A3032 RMK A01 T00461039  RH  054%=      5-min Rain = 0
KST2 191737Z 34025KT 05/M04 A3032 RMK A01 T00451042  RH  053%=      5-min Rain = 0
KST2 191738Z 34024KT 05/M04 A3032 RMK A01 T00451037  RH  055%=      5-min Rain = 0
KST2 191739Z 35025KT 05/M04 A3032 RMK A01 T00451040  RH  054%=      5-min Rain = 0
KST2 191740Z 35024KT 05/M04 A3032 RMK A01 T00451039  RH  054%=      5-min Rain = 0
KST2 191741Z 34022KT 05/M04 A3032 RMK A01 T00461039  RH  054%=      5-min Rain = 0
KST2 191742Z 33023G28KT 05/M03 A3031 RMK A01 T00461034  RH  056%=      5-min Rain = 0
KST2 191743Z 33024KT 05/M04 A3031 RMK A01 T00471036  RH  055%=      5-min Rain = 0
KST2 191744Z 35022KT 05/M04 A3032 RMK A01 T00471036  RH  055%=      5-min Rain = 0
KST2 191745Z 34023KT 05/M04 A3032 RMK A01 T00471038  RH  054%=      5-min Rain = 0
KST2 191746Z 35024G30KT 05/M04 A3032 RMK A01 T00461038  RH  055%=      5-min Rain = 0
KST2 191747Z 35024KT 05/M04 A3032 RMK A01 T00461039  RH  054%=      5-min Rain = 0
KST2 191748Z 35023KT 05/M04 A3031 RMK A01 T00461038  RH  054%=      5-min Rain = 0
KST2 191749Z 34023KT 05/M04 A3031 RMK A01 T00461039  RH  054%=      5-min Rain = 0
KST2 191750Z 34022KT 05/M04 A3031 RMK A01 T00461038  RH  055%=      5-min Rain = 0
KST2 191751Z 35022G27KT 05/M04 A3031 RMK A01 T00461037  RH  055%=      5-min Rain = 0
KST2 191752Z 34020KT 05/M03 A3031 RMK A01 T00471033  RH  056%=      5-min Rain = 0
KST2 191753Z 34020KT 05/M04 A3031 RMK A01 T00481035  RH  055%=      5-min Rain = 0
KST2 191754Z 34023KT 05/M04 A3031 RMK A01 T00481036  RH  055%=      5-min Rain = 0
KST2 191755Z 34019KT 05/M04 A3031 RMK A01 T00481035  RH  055%=      5-min Rain = 0
KST2 191756Z 35020G26KT 05/M03 A3031 RMK A01 T00481032  RH  056%=      5-min Rain = 0
KST2 191757Z 35019G26KT 05/M03 A3031 RMK A01 T00491032  RH  056%=      5-min Rain = 0
KST2 191758Z 33023KT 05/M03 A3031 RMK A01 T00501030  RH  056%=      5-min Rain = 0
KST2 191759Z 33022KT 05/M03 A3031 RMK A01 T00501032  RH  055%=      5-min Rain = 0
KST2 191800Z 34024KT 05/M03 A3031 RMK A01 T00501032  RH  055%=      5-min Rain = 0
KST2 191801Z 33022KT 05/M04 A3031 RMK A01 T00491035  RH  054%=      5-min Rain = 0
KST2 191802Z 33021KT 05/M04 A3031 RMK A01 T00481037  RH  054%=      5-min Rain = 0
KST2 191803Z 33021G26KT 05/M04 A3031 RMK A01 T00481036  RH  055%=      5-min Rain = 0
KST2 191804Z 33021KT 05/M04 A3031 RMK A01 T00481037  RH  054%=      5-min Rain = 0
KST2 191805Z 33018G23KT 05/M03 A3031 RMK A01 T00501030  RH  056%=      5-min Rain = 0
KST2 191806Z 34018G23KT 05/M03 A3031 RMK A01 T00521026  RH  057%=      5-min Rain = 0
KST2 191807Z 34018KT 06/M02 A3031 RMK A01 T00551024  RH  057%=      5-min Rain = 0
KST2 191808Z 33023G29KT 06/M03 A3031 RMK A01 T00551027  RH  056%=      5-min Rain = 0
KST2 191809Z 33022KT 05/M03 A3031 RMK A01 T00531032  RH  054%=      5-min Rain = 0
KST2 191810Z 32020KT 05/M03 A3031 RMK A01 T00521034  RH  054%=      5-min Rain = 0
KST2 191811Z 33020KT 05/M03 A3031 RMK A01 T00511033  RH  054%=      5-min Rain = 0
KST2 191812Z 34021G26KT 05/M03 A3031 RMK A01 T00531030  RH  055%=      5-min Rain = 0
KST2 191813Z 34021KT 05/M03 A3031 RMK A01 T00541033  RH  054%=      5-min Rain = 0
KST2 191814Z 34023KT 05/M03 A3031 RMK A01 T00531033  RH  054%=      5-min Rain = 0
KST2 191815Z 33023KT 05/M04 A3031 RMK A01 T00511037  RH  053%=      5-min Rain = 0
KST2 191816Z 33021KT 05/M04 A3031 RMK A01 T00491040  RH  052%=      5-min Rain = 0
KST2 191817Z 34020G25KT 05/M04 A3031 RMK A01 T00491041  RH  052%=      5-min Rain = 0
KST2 191818Z 33020KT 05/M04 A3031 RMK A01 T00491039  RH  053%=      5-min Rain = 0
KST2 191819Z 34017KT 05/M03 A3031 RMK A01 T00511032  RH  055%=      5-min Rain = 0
KST2 191820Z 34021G29KT 06/M03 A3031 RMK A01 T00551025  RH  056%=      5-min Rain = 0
KST2 191821Z 33022KT 06/M03 A3031 RMK A01 T00561031  RH  053%=      5-min Rain = 0
KST2 191822Z 33020G25KT 05/M04 A3031 RMK A01 T00521038  RH  052%=      5-min Rain = 0
KST2 191823Z 33022G29KT 05/M04 A303 RMK A01 T00521036  RH  053%=      5-min Rain = 0
KST2 191824Z 32024KT 05/M04 A303 RMK A01 T00511041  RH  052%=      5-min Rain = 0
KST2 191825Z 33020KT 05/M04 A3031 RMK A01 T00501035  RH  054%=      5-min Rain = 0
KST2 191826Z 34024KT 05/M03 A3031 RMK A01 T00531032  RH  054%=      5-min Rain = 0
KST2 191827Z 33024G29KT 05/M04 A3031 RMK A01 T00521040  RH  052%=      5-min Rain = 0
KST2 191828Z 33023KT 05/M04 A3031 RMK A01 T00511036  RH  053%=      5-min Rain = 0
KST2 191829Z 33026KT 05/M04 A303 RMK A01 T00521036  RH  053%=      5-min Rain = 0
KST2 191830Z 33026KT 05/M04 A303 RMK A01 T00521039  RH  052%=      5-min Rain = 0
KST2 191831Z 33022KT 05/M04 A3031 RMK A01 T00501042  RH  051%=      5-min Rain = 0
KST2 191832Z 34024KT 05/M04 A3031 RMK A01 T00501040  RH  052%=      5-min Rain = 0
KST2 191833Z 33021KT 05/M04 A303 RMK A01 T00501041  RH  052%=      5-min Rain = 0
KST2 191834Z 33021G26KT 05/M03 A303 RMK A01 T00511034  RH  054%=      5-min Rain = 0
KST2 191835Z 33021KT 05/M04 A303 RMK A01 T00531035  RH  053%=      5-min Rain = 0
KST2 191836Z 34021G27KT 06/M03 A303 RMK A01 T00551032  RH  054%=      5-min Rain = 0
KST2 191837Z 34022KT 06/M04 A303 RMK A01 T00551039  RH  051%=      5-min Rain = 0
KST2 191838Z 34024G30KT 05/M04 A303 RMK A01 T00531041  RH  051%=      5-min Rain = 0
KST2 191839Z 34021G26KT 05/M04 A303 RMK A01 T00521038  RH  052%=      5-min Rain = 0
KST2 191840Z 34019KT 05/M03 A303 RMK A01 T00541033  RH  054%=      5-min Rain = 0
KST2 191841Z 34022KT 06/M03 A303 RMK A01 T00551034  RH  053%=      5-min Rain = 0
KST2 191842Z 35019G26KT 06/M03 A303 RMK A01 T00551032  RH  053%=      5-min Rain = 0
KST2 191843Z 35022KT 06/M04 A303 RMK A01 T00551036  RH  052%=      5-min Rain = 0
KST2 191844Z 35020KT 06/M04 A303 RMK A01 T00551037  RH  052%=      5-min Rain = 0
KST2 191845Z 34024KT 06/M03 A303 RMK A01 T00551034  RH  053%=      5-min Rain = 0
KST2 191846Z 33020KT 06/M04 A303 RMK A01 T00561036  RH  052%=      5-min Rain = 0
KST2 191847Z 33018KT 06/M03 A303 RMK A01 T00571030  RH  054%=      5-min Rain = 0
KST2 191848Z 33021G26KT 06/M03 A303 RMK A01 T00581032  RH  052%=      5-min Rain = 0
KST2 191849Z 33023G28KT 06/M03 A3029 RMK A01 T00581033  RH  052%=      5-min Rain = 0
KST2 191850Z 33024KT 06/M04 A3029 RMK A01 T00581036  RH  051%=      5-min Rain = 0
KST2 191851Z 33022KT 06/M03 A3029 RMK A01 T00581034  RH  051%=      5-min Rain = 0
KST2 191852Z 33023G28KT 06/M03 A3029 RMK A01 T00591033  RH  052%=      5-min Rain = 0
KST2 191853Z 33020G26KT 06/M03 A3029 RMK A01 T00601031  RH  052%=      5-min Rain = 0
KST2 191854Z 34022KT 06/M03 A3029 RMK A01 T00601034  RH  051%=      5-min Rain = 0
KST2 191855Z 33021G26KT 06/M03 A3029 RMK A01 T00601030  RH  052%=      5-min Rain = 0
KST2 191856Z 34023KT 06/M04 A3029 RMK A01 T00601036  RH  050%=      5-min Rain = 0
KST2 191857Z 33023KT 06/M04 A3029 RMK A01 T00591036  RH  050%=      5-min Rain = 0
KST2 191858Z 32019G24KT 06/M04 A3029 RMK A01 T00581035  RH  051%=      5-min Rain = 0
KST2 191859Z 33021KT 06/M03 A3028 RMK A01 T00581033  RH  052%=      5-min Rain = 0
KST2 191900Z 35020G25KT 06/M03 A3029 RMK A01 T00601031  RH  052%=      5-min Rain = 0
KST2 191901Z 34022G27KT 06/M03 A3028 RMK A01 T00611032  RH  051%=      5-min Rain = 0
KST2 191902Z 34022KT 06/M03 A3028 RMK A01 T00611034  RH  050%=      5-min Rain = 0
KST2 191903Z 35021KT 06/M04 A3028 RMK A01 T00601035  RH  050%=      5-min Rain = 0
KST2 191904Z 35019KT 06/M03 A3028 RMK A01 T00611030  RH  052%=      5-min Rain = 0
KST2 191905Z 36021G27KT 06/M03 A3028 RMK A01 T00621029  RH  052%=      5-min Rain = 0
KST2 191906Z 35019KT 06/M03 A3028 RMK A01 T00611032  RH  051%=      5-min Rain = 0
KST2 191907Z 33019KT 06/M03 A3028 RMK A01 T00621029  RH  052%=      5-min Rain = 0
KST2 191908Z 34020KT 06/M03 A3028 RMK A01 T00631026  RH  053%=      5-min Rain = 0
KST2 191909Z 35020KT 06/M03 A3028 RMK A01 T00631033  RH  050%=      5-min Rain = 0
KST2 191910Z 34022G27KT 06/M04 A3027 RMK A01 T00621036  RH  050%=      5-min Rain = 0
KST2 191911Z 35021KT 06/M04 A3027 RMK A01 T00601037  RH  050%=      5-min Rain = 0
KST2 191912Z 35021KT 06/M03 A3027 RMK A01 T00601030  RH  052%=      5-min Rain = 0
KST2 191913Z 35027KT 06/M03 A3027 RMK A01 T00611031  RH  052%=      5-min Rain = 0
KST2 191914Z 35022KT 06/M04 A3027 RMK A01 T00611035  RH  050%=      5-min Rain = 0
KST2 191915Z 35022KT 06/M03 A3027 RMK A01 T00601034  RH  051%=      5-min Rain = 0
KST2 191916Z 35019KT 06/M04 A3027 RMK A01 T00601035  RH  050%=      5-min Rain = 0
KST2 191917Z 34022G27KT 06/M03 A3027 RMK A01 T00611029  RH  052%=      5-min Rain = 0
KST2 191918Z 34025KT 06/M03 A3027 RMK A01 T00631033  RH  050%=      5-min Rain = 0
KST2 191919Z 34021KT 06/M03 A3027 RMK A01 T00621033  RH  050%=      5-min Rain = 0
KST2 191920Z 34021KT 06/M03 A3027 RMK A01 T00621033  RH  050%=      5-min Rain = 0
KST2 191921Z 34021G28KT 06/M03 A3027 RMK A01 T00621032  RH  051%=      5-min Rain = 0
KST2 191922Z 33022KT 06/M04 A3027 RMK A01 T00621035  RH  050%=      5-min Rain = 0
KST2 191923Z 33020KT 06/M04 A3027 RMK A01 T00621036  RH  049%=      5-min Rain = 0
KST2 191924Z 33018KT 06/M03 A3027 RMK A01 T00621031  RH  051%=      5-min Rain = 0
KST2 191925Z 33021G26KT 06/M03 A3027 RMK A01 T00641026  RH  052%=      5-min Rain = 0
KST2 191926Z 34021G26KT 07/M03 A3027 RMK A01 T00651031  RH  050%=      5-min Rain = 0
KST2 191927Z 33020KT 07/M03 A3027 RMK A01 T00651027  RH  052%=      5-min Rain = 0
KST2 191928Z 33018KT 07/M02 A3027 RMK A01 T00671024  RH  052%=      5-min Rain = 0
KST2 191929Z 33019KT 07/M03 A3027 RMK A01 T00671027  RH  051%=      5-min Rain = 0
KST2 191930Z 33022KT 07/M03 A3027 RMK A01 T00671029  RH  050%=      5-min Rain = 0
KST2 191931Z 34022KT 07/M04 A3027 RMK A01 T00651035  RH  049%=      5-min Rain = 0
KST2 191932Z 34021KT 06/M04 A3027 RMK A01 T00631037  RH  049%=      5-min Rain = 0
KST2 191933Z 34021KT 06/M04 A3027 RMK A01 T00621036  RH  050%=      5-min Rain = 0
KST2 191934Z 33021KT 06/M03 A3027 RMK A01 T00621034  RH  050%=      5-min Rain = 0
KST2 191935Z 33019KT 06/M03 A3027 RMK A01 T00641029  RH  051%=      5-min Rain = 0
KST2 191936Z 34019KT 07/M03 A3027 RMK A01 T00661027  RH  052%=      5-min Rain = 0
KST2 191937Z 34021KT 07/M02 A3027 RMK A01 T00681024  RH  052%=      5-min Rain = 0
KST2 191938Z 33018KT 07/M03 A3027 RMK A01 T00681028  RH  050%=      5-min Rain = 0
KST2 191939Z 33019KT 07/M03 A3027 RMK A01 T00681027  RH  051%=      5-min Rain = 0
KST2 191940Z 34020KT 07/M03 A3027 RMK A01 T00681027  RH  051%=      5-min Rain = 0
KST2 191941Z 34020KT 07/M03 A3027 RMK A01 T00681029  RH  050%=      5-min Rain = 0
KST2 191942Z 34019KT 07/M03 A3027 RMK A01 T00671028  RH  051%=      5-min Rain = 0
KST2 191943Z 34017KT 07/M02 A3027 RMK A01 T00681023  RH  052%=      5-min Rain = 0
KST2 191944Z 34020KT 07/M02 A3027 RMK A01 T00701022  RH  052%=      5-min Rain = 0
KST2 191945Z 34020KT 07/M02 A3027 RMK A01 T00711023  RH  051%=      5-min Rain = 0
KST2 191946Z 33024KT 07/M03 A3027 RMK A01 T00711029  RH  049%=      5-min Rain = 0
KST2 191947Z 33020KT 07/M03 A3027 RMK A01 T00701027  RH  050%=      5-min Rain = 0
KST2 191948Z 33022KT 07/M03 A3027 RMK A01 T00701029  RH  049%=      5-min Rain = 0
KST2 191949Z 33019KT 07/M03 A3027 RMK A01 T00691031  RH  049%=      5-min Rain = 0
KST2 191950Z 33021KT 07/M03 A3027 RMK A01 T00691032  RH  049%=      5-min Rain = 0
KST2 191951Z 34021KT 07/M03 A3027 RMK A01 T00681033  RH  049%=      5-min Rain = 0
KST2 191952Z 35025KT 07/M03 A3027 RMK A01 T00691030  RH  049%=      5-min Rain = 0
KST2 191953Z 35023KT 07/M03 A3027 RMK A01 T00681033  RH  048%=      5-min Rain = 0
KST2 191954Z 34020KT 07/M03 A3027 RMK A01 T00671033  RH  049%=      5-min Rain = 0
KST2 191955Z 35021KT 07/M03 A3027 RMK A01 T00681029  RH  050%=      5-min Rain = 0
KST2 191956Z 33021KT 07/M03 A3027 RMK A01 T00691031  RH  049%=      5-min Rain = 0
KST2 191957Z 34019G25KT 07/M03 A3027 RMK A01 T00701027  RH  050%=      5-min Rain = 0
KST2 191958Z 34022KT 07/M03 A3027 RMK A01 T00711028  RH  049%=      5-min Rain = 0
KST2 191959Z 33022KT 07/M03 A3027 RMK A01 T00711031  RH  048%=      5-min Rain = 0
KST2 192000Z 33020KT 07/M03 A3027 RMK A01 T00701030  RH  049%=      5-min Rain = 0
KST2 192001Z 34019KT 07/M03 A3027 RMK A01 T00711027  RH  050%=      5-min Rain = 0
KST2 192002Z 33021KT 07/M03 A3027 RMK A01 T00721027  RH  049%=      5-min Rain = 0
KST2 192003Z 33019KT 07/M03 A3027 RMK A01 T00721029  RH  049%=      5-min Rain = 0
KST2 192004Z 33019KT 07/M03 A3027 RMK A01 T00721027  RH  049%=      5-min Rain = 0
KST2 192005Z 32023KT 07/M03 A3027 RMK A01 T00721028  RH  049%=      5-min Rain = 0
KST2 192006Z 32020KT 07/M03 A3027 RMK A01 T00711028  RH  049%=      5-min Rain = 0
KST2 192007Z 32018G23KT 07/M03 A3027 RMK A01 T00721026  RH  050%=      5-min Rain = 0
KST2 192008Z 33019KT 07/M03 A3027 RMK A01 T00721026  RH  050%=      5-min Rain = 0
KST2 192009Z 33018KT 07/M02 A3027 RMK A01 T00741024  RH  050%=      5-min Rain = 0
KST2 192010Z 34020KT 07/M03 A3027 RMK A01 T00741027  RH  049%=      5-min Rain = 0
KST2 192011Z 34018KT 07/M03 A3027 RMK A01 T00741029  RH  048%=      5-min Rain = 0
KST2 192012Z 35017KT 07/M03 A3026 RMK A01 T00731028  RH  049%=      5-min Rain = 0
KST2 192013Z 34021KT 07/M03 A3026 RMK A01 T00741025  RH  050%=      5-min Rain = 0
KST2 192014Z 34021KT 07/M03 A3026 RMK A01 T00741030  RH  048%=      5-min Rain = 0
KST2 192015Z 34020G25KT 07/M03 A3026 RMK A01 T00731029  RH  048%=      5-min Rain = 0
KST2 192016Z 33020KT 07/M03 A3026 RMK A01 T00741028  RH  048%=      5-min Rain = 0
KST2 192017Z 34019G24KT 08/M02 A3026 RMK A01 T00751019  RH  051%=      5-min Rain = 0
KST2 192018Z 33022KT 08/M02 A3027 RMK A01 T00771024  RH  049%=      5-min Rain = 0
KST2 192019Z 33017KT 08/M02 A3027 RMK A01 T00761024  RH  049%=      5-min Rain = 0
KST2 192020Z 33016KT 08/M02 A3027 RMK A01 T00761023  RH  050%=      5-min Rain = 0
KST2 192021Z 33017KT 08/M02 A3027 RMK A01 T00771019  RH  051%=      5-min Rain = 0
KST2 192022Z 33021G26KT 08/M02 A3027 RMK A01 T00771019  RH  051%=      5-min Rain = 0
KST2 192023Z 34020G25KT 08/M02 A3027 RMK A01 T00781022  RH  049%=      5-min Rain = 0
KST2 192024Z 34017KT 08/M02 A3027 RMK A01 T00771022  RH  050%=      5-min Rain = 0
KST2 192025Z 35018KT 08/M02 A3027 RMK A01 T00771022  RH  049%=      5-min Rain = 0
KST2 192026Z 34018G24KT 08/M02 A3027 RMK A01 T00771024  RH  049%=      5-min Rain = 0
KST2 192027Z 34021KT 08/M03 A3027 RMK A01 T00771025  RH  049%=      5-min Rain = 0
KST2 192028Z 34021KT 08/M03 A3027 RMK A01 T00761026  RH  049%=      5-min Rain = 0
KST2 192029Z 33022KT 08/M03 A3026 RMK A01 T00761025  RH  049%=      5-min Rain = 0
KST2 192030Z 33019KT 08/M02 A3027 RMK A01 T00761020  RH  050%=      5-min Rain = 0
KST2 192031Z 33018KT 08/M02 A3026 RMK A01 T00771024  RH  049%=      5-min Rain = 0
KST2 192032Z 33016KT 08/M02 A3026 RMK A01 T00761022  RH  050%=      5-min Rain = 0
KST2 192033Z 33018KT 08/M02 A3026 RMK A01 T00771022  RH  050%=      5-min Rain = 0
KST2 192034Z 33015KT 08/M02 A3026 RMK A01 T00771024  RH  049%=      5-min Rain = 0
KST2 192035Z 33016G22KT 08/M02 A3026 RMK A01 T00771017  RH  051%=      5-min Rain = 0
KST2 192036Z 33020KT 08/M02 A3026 RMK A01 T00791023  RH  049%=      5-min Rain = 0
KST2 192037Z 34017G23KT 08/M02 A3026 RMK A01 T00781022  RH  049%=      5-min Rain = 0
KST2 192038Z 35021KT 08/M02 A3026 RMK A01 T00791018  RH  050%=      5-min Rain = 0
KST2 192039Z 35020KT 08/M02 A3026 RMK A01 T00791022  RH  049%=      5-min Rain = 0
KST2 192040Z 34018KT 08/M02 A3026 RMK A01 T00791019  RH  050%=      5-min Rain = 0
KST2 192041Z 34019KT 08/M01 A3026 RMK A01 T00811014  RH  051%=      5-min Rain = 0
KST2 192042Z 34018G23KT 08/M02 A3026 RMK A01 T00811016  RH  050%=      5-min Rain = 0
KST2 192043Z 33022KT 08/M02 A3026 RMK A01 T00811021  RH  049%=      5-min Rain = 0
KST2 192044Z 34018KT 08/M03 A3026 RMK A01 T00791026  RH  047%=      5-min Rain = 0
KST2 192045Z 33015KT 08/M02 A3026 RMK A01 T00781021  RH  050%=      5-min Rain = 0
KST2 192046Z 33020G27KT 08/M02 A3026 RMK A01 T00801022  RH  049%=      5-min Rain = 0
KST2 192047Z 33024KT 08/M03 A3026 RMK A01 T00791026  RH  047%=      5-min Rain = 0
KST2 192048Z 34023KT 08/M03 A3026 RMK A01 T00781029  RH  047%=      5-min Rain = 0
KST2 192049Z 33020KT 08/M03 A3026 RMK A01 T00781027  RH  048%=      5-min Rain = 0
KST2 192050Z 33016KT 08/M03 A3026 RMK A01 T00781026  RH  048%=      5-min Rain = 0
KST2 192051Z 34021KT 08/M02 A3026 RMK A01 T00791024  RH  048%=      5-min Rain = 0
KST2 192052Z 34020KT 08/M03 A3026 RMK A01 T00791028  RH  046%=      5-min Rain = 0
KST2 192053Z 34022KT 08/M03 A3026 RMK A01 T00791025  RH  048%=      5-min Rain = 0
KST2 192054Z 33021KT 08/M03 A3026 RMK A01 T00801025  RH  047%=      5-min Rain = 0
KST2 192055Z 33018G24KT 08/M03 A3026 RMK A01 T00801028  RH  047%=      5-min Rain = 0
KST2 192056Z 33021KT 08/M02 A3026 RMK A01 T00801023  RH  048%=      5-min Rain = 0
KST2 192057Z 34024KT 08/M03 A3026 RMK A01 T00811025  RH  047%=      5-min Rain = 0
KST2 192058Z 33021KT 08/M02 A3026 RMK A01 T00811023  RH  048%=      5-min Rain = 0
KST2 192059Z 33021KT 08/M03 A3026 RMK A01 T00801025  RH  047%=      5-min Rain = 0
KST2 192100Z 34020KT 08/M03 A3026 RMK A01 T00791027  RH  047%=      5-min Rain = 0
KST2 192101Z 34017KT 08/M02 A3026 RMK A01 T00791024  RH  048%=      5-min Rain = 0
KST2 192102Z 34017KT 08/M03 A3026 RMK A01 T00791026  RH  047%=      5-min Rain = 0
KST2 192103Z 35017KT 08/M03 A3026 RMK A01 T00801025  RH  048%=      5-min Rain = 0
KST2 192104Z 35017KT 08/M02 A3026 RMK A01 T00811019  RH  049%=      5-min Rain = 0
KST2 192105Z 35020KT 08/M02 A3026 RMK A01 T00821023  RH  048%=      5-min Rain = 0
KST2 192106Z 35020KT 08/M02 A3026 RMK A01 T00811023  RH  048%=      5-min Rain = 0
KST2 192107Z 35018KT 08/M02 A3026 RMK A01 T00811023  RH  048%=      5-min Rain = 0
KST2 192108Z 35019G24KT 08/M02 A3026 RMK A01 T00811022  RH  048%=      5-min Rain = 0
KST2 192109Z 35018KT 08/M03 A3026 RMK A01 T00811027  RH  046%=      5-min Rain = 0
KST2 192110Z 33020G27KT 08/M03 A3026 RMK A01 T00811026  RH  047%=      5-min Rain = 0
KST2 192111Z 33021KT 08/M03 A3026 RMK A01 T00821025  RH  047%=      5-min Rain = 0
KST2 192112Z 32019KT 08/M03 A3026 RMK A01 T00811026  RH  047%=      5-min Rain = 0
KST2 192113Z 33020KT 08/M03 A3026 RMK A01 T00811027  RH  047%=      5-min Rain = 0
KST2 192114Z 33016G21KT 08/M02 A3026 RMK A01 T00811022  RH  048%=      5-min Rain = 0
KST2 192115Z 34016KT 08/M02 A3026 RMK A01 T00821019  RH  049%=      5-min Rain = 0
KST2 192116Z 34016KT 08/M03 A3026 RMK A01 T00821027  RH  046%=      5-min Rain = 0
KST2 192117Z 35016G21KT 08/M03 A3026 RMK A01 T00811025  RH  047%=      5-min Rain = 0
KST2 192118Z 35019KT 08/M02 A3026 RMK A01 T00811021  RH  048%=      5-min Rain = 0
KST2 192119Z 35016KT 08/M02 A3026 RMK A01 T00821019  RH  049%=      5-min Rain = 0
KST2 192120Z 35016KT 08/M02 A3026 RMK A01 T00831015  RH  050%=      5-min Rain = 0
KST2 192121Z 35017KT 08/M02 A3026 RMK A01 T00841017  RH  049%=      5-min Rain = 0
KST2 192122Z 34020KT 08/M02 A3026 RMK A01 T00841019  RH  048%=      5-min Rain = 0
KST2 192123Z 34020KT 08/M02 A3026 RMK A01 T00831023  RH  047%=      5-min Rain = 0
KST2 192124Z 34017KT 08/M02 A3026 RMK A01 T00821024  RH  047%=      5-min Rain = 0
KST2 192125Z 36018KT 08/M02 A3027 RMK A01 T00821020  RH  049%=      5-min Rain = 0
KST2 192126Z 35017KT 08/M02 A3026 RMK A01 T00821021  RH  048%=      5-min Rain = 0
KST2 192127Z 33018KT 08/M02 A3026 RMK A01 T00821019  RH  049%=      5-min Rain = 0
KST2 192128Z 34015KT 08/M02 A3027 RMK A01 T00831019  RH  049%=      5-min Rain = 0
KST2 192129Z 36016KT 08/M02 A3027 RMK A01 T00831024  RH  047%=      5-min Rain = 0
KST2 192130Z 34015KT 08/M02 A3027 RMK A01 T00821017  RH  049%=      5-min Rain = 0
KST2 192131Z 35016KT 08/M02 A3027 RMK A01 T00841016  RH  049%=      5-min Rain = 0
KST2 192132Z 35017KT 08/M02 A3027 RMK A01 T00841018  RH  049%=      5-min Rain = 0
KST2 192133Z 35019KT 08/M02 A3027 RMK A01 T00841021  RH  048%=      5-min Rain = 0
KST2 192134Z 35018KT 08/M02 A3027 RMK A01 T00831020  RH  048%=      5-min Rain = 0
KST2 192135Z 35016KT 08/M02 A3027 RMK A01 T00841022  RH  047%=      5-min Rain = 0
KST2 192136Z 34016KT 08/M02 A3027 RMK A01 T00841020  RH  048%=      5-min Rain = 0
KST2 192137Z 34018KT 08/M02 A3027 RMK A01 T00841020  RH  048%=      5-min Rain = 0
KST2 192138Z 34017KT 09/M02 A3027 RMK A01 T00851019  RH  048%=      5-min Rain = 0
KST2 192139Z 34019KT 09/M02 A3027 RMK A01 T00851020  RH  048%=      5-min Rain = 0
KST2 192140Z 34018KT 08/M03 A3027 RMK A01 T00841026  RH  046%=      5-min Rain = 0
KST2 192141Z 34019KT 08/M02 A3027 RMK A01 T00841022  RH  048%=      5-min Rain = 0
KST2 192142Z 34022KT 08/M02 A3027 RMK A01 T00841020  RH  048%=      5-min Rain = 0
KST2 192143Z 33018KT 08/M02 A3027 RMK A01 T00841024  RH  047%=      5-min Rain = 0
KST2 192144Z 33016KT 08/M03 A3027 RMK A01 T00831025  RH  047%=      5-min Rain = 0
KST2 192145Z 32014KT 08/M02 A3027 RMK A01 T00831020  RH  048%=      5-min Rain = 0
KST2 192146Z 32016KT 08/M02 A3027 RMK A01 T00841020  RH  048%=      5-min Rain = 0
KST2 192147Z 33015KT 09/M02 A3027 RMK A01 T00851017  RH  049%=      5-min Rain = 0
KST2 192148Z 34017KT 09/M02 A3027 RMK A01 T00861016  RH  049%=      5-min Rain = 0
KST2 192149Z 34017KT 09/M02 A3027 RMK A01 T00851024  RH  046%=      5-min Rain = 0
KST2 192150Z 34014KT 09/M02 A3027 RMK A01 T00851022  RH  047%=      5-min Rain = 0
KST2 192151Z 33014KT 09/M02 A3027 RMK A01 T00851017  RH  049%=      5-min Rain = 0
KST2 192152Z 34018G24KT 09/M02 A3027 RMK A01 T00861019  RH  048%=      5-min Rain = 0
KST2 192153Z 33018KT 09/M03 A3027 RMK A01 T00851026  RH  045%=      5-min Rain = 0
KST2 192154Z 33014KT 09/M02 A3027 RMK A01 T00851024  RH  046%=      5-min Rain = 0
KST2 192155Z 34017G22KT 08/M02 A3027 RMK A01 T00841021  RH  047%=      5-min Rain = 0
KST2 192156Z 34019KT 09/M02 A3027 RMK A01 T00851022  RH  047%=      5-min Rain = 0
KST2 192157Z 34018KT 09/M03 A3027 RMK A01 T00851025  RH  046%=      5-min Rain = 0
KST2 192158Z 34014KT 09/M02 A3027 RMK A01 T00851021  RH  048%=      5-min Rain = 0
KST2 192159Z 34018KT 09/M02 A3027 RMK A01 T00861019  RH  048%=      5-min Rain = 0
KST2 192200Z 34017KT 09/M02 A3027 RMK A01 T00861022  RH  047%=      5-min Rain = 0
KST2 192201Z 34013KT 09/M02 A3027 RMK A01 T00861016  RH  049%=      5-min Rain = 0
KST2 192202Z 34017KT 09/M02 A3027 RMK A01 T00861019  RH  047%=      5-min Rain = 0
KST2 192203Z 35017KT 09/M02 A3027 RMK A01 T00861022  RH  047%=      5-min Rain = 0
KST2 192204Z 35016KT 09/M03 A3027 RMK A01 T00851025  RH  046%=      5-min Rain = 0
KST2 192205Z 35021KT 08/M03 A3027 RMK A01 T00841025  RH  046%=      5-min Rain = 0
KST2 192206Z 34021KT 08/M03 A3027 RMK A01 T00841026  RH  046%=      5-min Rain = 0
KST2 192207Z 33018KT 09/M03 A3027 RMK A01 T00851026  RH  046%=      5-min Rain = 0
KST2 192208Z 33019KT 08/M02 A3027 RMK A01 T00841023  RH  047%=      5-min Rain = 0
KST2 192209Z 33020KT 08/M02 A3027 RMK A01 T00841024  RH  046%=      5-min Rain = 0
KST2 192210Z 33019KT 09/M03 A3027 RMK A01 T00851026  RH  046%=      5-min Rain = 0
KST2 192211Z 34016KT 08/M03 A3027 RMK A01 T00841025  RH  046%=      5-min Rain = 0
KST2 192212Z 34013KT 09/M02 A3027 RMK A01 T00851019  RH  048%=      5-min Rain = 0
KST2 192213Z 33018KT 09/M02 A3027 RMK A01 T00861019  RH  048%=      5-min Rain = 0
KST2 192214Z 34016G21KT 09/M02 A3027 RMK A01 T00861024  RH  046%=      5-min Rain = 0
KST2 192215Z 34016G21KT 09/M02 A3027 RMK A01 T00861020  RH  047%=      5-min Rain = 0
KST2 192216Z 34014G19KT 09/M02 A3027 RMK A01 T00861017  RH  048%=      5-min Rain = 0
KST2 192217Z 34018G23KT 09/M02 A3027 RMK A01 T00871021  RH  047%=      5-min Rain = 0
KST2 192218Z 33017KT 09/M02 A3027 RMK A01 T00861022  RH  046%=      5-min Rain = 0
KST2 192219Z 33016KT 09/M02 A3027 RMK A01 T00861024  RH  046%=      5-min Rain = 0
KST2 192220Z 34019KT 09/M02 A3028 RMK A01 T00861022  RH  047%=      5-min Rain = 0
KST2 192221Z 34018KT 09/M03 A3028 RMK A01 T00861026  RH  045%=      5-min Rain = 0
KST2 192222Z 35017KT 09/M03 A3028 RMK A01 T00851025  RH  046%=      5-min Rain = 0
KST2 192223Z 34017KT 09/M02 A3028 RMK A01 T00851023  RH  047%=      5-min Rain = 0
KST2 192224Z 34014KT 09/M02 A3028 RMK A01 T00851020  RH  047%=      5-min Rain = 0
KST2 192225Z 34017G22KT 09/M02 A3028 RMK A01 T00861019  RH  048%=      5-min Rain = 0
KST2 192226Z 34018KT 09/M02 A3028 RMK A01 T00861023  RH  046%=      5-min Rain = 0
KST2 192227Z 34018KT 09/M02 A3028 RMK A01 T00861024  RH  046%=      5-min Rain = 0
KST2 192228Z 35018KT 09/M03 A3028 RMK A01 T00851028  RH  045%=      5-min Rain = 0
KST2 192229Z 35017KT 08/M03 A3028 RMK A01 T00841028  RH  045%=      5-min Rain = 0
KST2 192230Z 34017KT 08/M02 A3028 RMK A01 T00841024  RH  047%=      5-min Rain = 0
KST2 192231Z 34017KT 08/M03 A3028 RMK A01 T00841025  RH  046%=      5-min Rain = 0
KST2 192232Z 34016KT 08/M02 A3028 RMK A01 T00841024  RH  046%=      5-min Rain = 0
KST2 192233Z 34016KT 08/M02 A3028 RMK A01 T00841024  RH  046%=      5-min Rain = 0
KST2 192234Z 34018KT 09/M02 A3028 RMK A01 T00851023  RH  047%=      5-min Rain = 0
KST2 192235Z 34018KT 09/M03 A3028 RMK A01 T00851030  RH  044%=      5-min Rain = 0
KST2 192236Z 33014KT 09/M03 A3028 RMK A01 T00851026  RH  045%=      5-min Rain = 0
KST2 192237Z 33016KT 09/M02 A3028 RMK A01 T00851021  RH  047%=      5-min Rain = 0
KST2 192238Z 33016KT 09/M02 A3028 RMK A01 T00861023  RH  046%=      5-min Rain = 0
KST2 192239Z 33016KT 09/M02 A3028 RMK A01 T00861023  RH  046%=      5-min Rain = 0
KST2 192240Z 33016KT 09/M03 A3028 RMK A01 T00851025  RH  046%=      5-min Rain = 0
KST2 192241Z 34016KT 09/M02 A3028 RMK A01 T00851022  RH  047%=      5-min Rain = 0
KST2 192242Z 34017KT 09/M03 A3028 RMK A01 T00851026  RH  046%=      5-min Rain = 0
KST2 192243Z 34014KT 09/M03 A3028 RMK A01 T00851026  RH  046%=      5-min Rain = 0
KST2 192244Z 34016KT 09/M02 A3028 RMK A01 T00851023  RH  047%=      5-min Rain = 0
KST2 192245Z 35016KT 09/M02 A3028 RMK A01 T00851023  RH  047%=      5-min Rain = 0
KST2 192246Z 35020KT 09/M03 A3028 RMK A01 T00851025  RH  046%=      5-min Rain = 0
KST2 192247Z 34017KT 08/M03 A3028 RMK A01 T00841025  RH  046%=      5-min Rain = 0
KST2 192248Z 34018G24KT 08/M02 A3028 RMK A01 T00841023  RH  047%=      5-min Rain = 0
KST2 192249Z 34019KT 08/M03 A3028 RMK A01 T00841027  RH  046%=      5-min Rain = 0
KST2 192250Z 35016KT 08/M03 A3028 RMK A01 T00841026  RH  046%=      5-min Rain = 0
KST2 192251Z 35015KT 08/M02 A3028 RMK A01 T00841022  RH  047%=      5-min Rain = 0
KST2 192252Z 35017KT 08/M03 A3028 RMK A01 T00841025  RH  046%=      5-min Rain = 0
KST2 192253Z 35018KT 08/M03 A3028 RMK A01 T00841025  RH  046%=      5-min Rain = 0
KST2 192254Z 34018KT 08/M03 A3028 RMK A01 T00841028  RH  045%=      5-min Rain = 0
KST2 192255Z 34018KT 08/M03 A3028 RMK A01 T00841028  RH  045%=      5-min Rain = 0
KST2 192256Z 34020KT 08/M03 A3028 RMK A01 T00841029  RH  045%=      5-min Rain = 0
KST2 192257Z 34016KT 08/M03 A3028 RMK A01 T00831028  RH  045%=      5-min Rain = 0
KST2 192258Z 34016KT 08/M02 A3028 RMK A01 T00841023  RH  047%=      5-min Rain = 0
KST2 192259Z 34016KT 08/M02 A3028 RMK A01 T00841024  RH  047%=      5-min Rain = 0
KST2 192300Z 34014KT 08/M02 A3028 RMK A01 T00831024  RH  047%=      5-min Rain = 0
KST2 192301Z 34014KT 08/M03 A3028 RMK A01 T00831025  RH  046%=      5-min Rain = 0
KST2 192302Z 35016G22KT 08/M03 A3028 RMK A01 T00831025  RH  046%=      5-min Rain = 0
KST2 192303Z 35016KT 08/M03 A3028 RMK A01 T00831025  RH  047%=      5-min Rain = 0
KST2 192304Z 35018KT 08/M03 A3028 RMK A01 T00831027  RH  046%=      5-min Rain = 0
KST2 192305Z 35015KT 08/M03 A3028 RMK A01 T00831027  RH  046%=      5-min Rain = 0
KST2 192306Z 35018KT 08/M03 A3027 RMK A01 T00821027  RH  046%=      5-min Rain = 0
KST2 192307Z 34017KT 08/M03 A3027 RMK A01 T00821027  RH  046%=      5-min Rain = 0
KST2 192308Z 34017KT 08/M03 A3027 RMK A01 T00811028  RH  046%=      5-min Rain = 0
KST2 192309Z 35014G19KT 08/M03 A3027 RMK A01 T00811027  RH  046%=      5-min Rain = 0
KST2 192310Z 36015KT 08/M03 A3027 RMK A01 T00801025  RH  047%=      5-min Rain = 0
KST2 192311Z 35014G19KT 08/M02 A3027 RMK A01 T00801024  RH  048%=      5-min Rain = 0
KST2 192312Z 35015KT 08/M03 A3027 RMK A01 T00801025  RH  048%=      5-min Rain = 0
KST2 192313Z 35016KT 08/M02 A3028 RMK A01 T00801022  RH  048%=      5-min Rain = 0
KST2 192314Z 35014KT 08/M02 A3027 RMK A01 T00801024  RH  048%=      5-min Rain = 0
KST2 192315Z 35014KT 08/M02 A3027 RMK A01 T00801023  RH  048%=      5-min Rain = 0
KST2 192316Z 36012KT 08/M02 A3027 RMK A01 T00801022  RH  049%=      5-min Rain = 0
KST2 192317Z 35016KT 08/M02 A3027 RMK A01 T00801021  RH  049%=      5-min Rain = 0
KST2 192318Z 35015KT 08/M02 A3027 RMK A01 T00791024  RH  048%=      5-min Rain = 0
KST2 192319Z 35016KT 08/M03 A3028 RMK A01 T00791025  RH  048%=      5-min Rain = 0
KST2 192320Z 35015KT 08/M03 A3028 RMK A01 T00791026  RH  047%=      5-min Rain = 0
KST2 192321Z 35015KT 08/M03 A3028 RMK A01 T00791026  RH  047%=      5-min Rain = 0
KST2 192322Z 35015KT 08/M03 A3027 RMK A01 T00791025  RH  048%=      5-min Rain = 0
KST2 192323Z 35013KT 08/M03 A3028 RMK A01 T00791025  RH  048%=      5-min Rain = 0
KST2 192324Z 35015KT 08/M03 A3028 RMK A01 T00791025  RH  048%=      5-min Rain = 0
KST2 192325Z 35017KT 08/M03 A3028 RMK A01 T00791026  RH  047%=      5-min Rain = 0
KST2 192326Z 35015KT 08/M03 A3028 RMK A01 T00791028  RH  047%=      5-min Rain = 0
KST2 192327Z 36015KT 08/M03 A3028 RMK A01 T00781026  RH  047%=      5-min Rain = 0
KST2 192328Z 35014KT 08/M03 A3028 RMK A01 T00781026  RH  048%=      5-min Rain = 0
KST2 192329Z 35015KT 08/M03 A3028 RMK A01 T00771026  RH  048%=      5-min Rain = 0
KST2 192330Z 35015KT 08/M03 A3028 RMK A01 T00771028  RH  047%=      5-min Rain = 0
KST2 192331Z 35014KT 08/M03 A3028 RMK A01 T00771026  RH  048%=      5-min Rain = 0
KST2 192332Z 35015KT 08/M03 A3028 RMK A01 T00771026  RH  048%=      5-min Rain = 0
KST2 192333Z 36016KT 08/M03 A3028 RMK A01 T00761030  RH  047%=      5-min Rain = 0
KST2 192334Z 36015KT 08/M03 A3028 RMK A01 T00761027  RH  048%=      5-min Rain = 0
KST2 192335Z 36014KT 08/M03 A3028 RMK A01 T00761027  RH  048%=      5-min Rain = 0
KST2 192336Z 00013KT 08/M03 A3028 RMK A01 T00761028  RH  048%=      5-min Rain = 0
KST2 192337Z 36012G17KT 08/M03 A3028 RMK A01 T00751026  RH  049%=      5-min Rain = 0
KST2 192338Z 36013KT 08/M02 A3028 RMK A01 T00751024  RH  049%=      5-min Rain = 0
KST2 192339Z 36015KT 07/M03 A3028 RMK A01 T00741027  RH  049%=      5-min Rain = 0
KST2 192340Z 36013KT 07/M03 A3028 RMK A01 T00741027  RH  049%=      5-min Rain = 0
KST2 192341Z 01010KT 07/M02 A3028 RMK A01 T00741024  RH  050%=      5-min Rain = 0
KST2 192342Z 02009KT 07/M02 A3028 RMK A01 T00721020  RH  052%=      5-min Rain = 0
KST2 192343Z 02011KT 07/M02 A3028 RMK A01 T00711022  RH  052%=      5-min Rain = 0
KST2 192344Z 01009KT 07/M02 A3028 RMK A01 T00701023  RH  052%=      5-min Rain = 0
KST2 192345Z 01009KT 07/M02 A3028 RMK A01 T00681023  RH  052%=      5-min Rain = 0
KST2 192346Z 01009KT 07/M02 A3028 RMK A01 T00681021  RH  053%=      5-min Rain = 0
KST2 192347Z 01009KT 07/M02 A3028 RMK A01 T00671021  RH  054%=      5-min Rain = 0
KST2 192348Z 01010KT 07/M02 A3028 RMK A01 T00671022  RH  053%=      5-min Rain = 0
KST2 192349Z 01009KT 07/M02 A3028 RMK A01 T00661021  RH  054%=      5-min Rain = 0
KST2 192350Z 00010KT 07/M02 A3028 RMK A01 T00661021  RH  054%=      5-min Rain = 0
KST2 192351Z 01009KT 07/M03 A3028 RMK A01 T00661025  RH  052%=      5-min Rain = 0
KST2 192352Z 01009KT 07/M02 A3028 RMK A01 T00661023  RH  053%=      5-min Rain = 0
KST2 192353Z 00008KT 07/M02 A3028 RMK A01 T00651023  RH  053%=      5-min Rain = 0
KST2 192354Z 01009KT 06/M02 A3028 RMK A01 T00641023  RH  054%=      5-min Rain = 0
KST2 192355Z 00009KT 06/M02 A3028 RMK A01 T00641024  RH  053%=      5-min Rain = 0
KST2 192356Z 01010KT 06/M03 A3028 RMK A01 T00641025  RH  053%=      5-min Rain = 0
KST2 192357Z 01008KT 06/M02 A3028 RMK A01 T00631024  RH  054%=      5-min Rain = 0
KST2 192358Z 01009KT 06/M02 A3028 RMK A01 T00621023  RH  054%=      5-min Rain = 0
KST2 192359Z 01010KT 06/M03 A3029 RMK A01 T00621026  RH  053%=      5-min Rain = 0
KST2 200000Z 01009KT 06/M03 A3028 RMK A01 T00611025  RH  054%=      5-min Rain = 0
KST2 200001Z 01010KT 06/M02 A3029 RMK A01 T00611024  RH  055%=      5-min Rain = 0
KST2 200002Z 01009KT 06/M03 A3029 RMK A01 T00611026  RH  054%=      5-min Rain = 0
KST2 200003Z 01010KT 06/M03 A3029 RMK A01 T00601027  RH  054%=      5-min Rain = 0
KST2 200004Z 01009KT 06/M03 A3029 RMK A01 T00601027  RH  054%=      5-min Rain = 0
KST2 200005Z 01009KT 06/M03 A3029 RMK A01 T00591027  RH  054%=      5-min Rain = 0
KST2 200006Z 01009KT 06/M03 A3029 RMK A01 T00591027  RH  054%=      5-min Rain = 0
KST2 200007Z 01009KT 06/M03 A3029 RMK A01 T00591027  RH  054%=      5-min Rain = 0
KST2 200008Z 01008KT 06/M03 A3029 RMK A01 T00581027  RH  054%=      5-min Rain = 0
KST2 200009Z 02007KT 06/M03 A3029 RMK A01 T00581027  RH  054%=      5-min Rain = 0
KST2 200010Z 02008KT 06/M03 A3029 RMK A01 T00571026  RH  055%=      5-min Rain = 0
KST2 200011Z 02008KT 06/M03 A3029 RMK A01 T00561027  RH  055%=      5-min Rain = 0
KST2 200012Z 02008KT 06/M03 A3029 RMK A01 T00561027  RH  055%=      5-min Rain = 0
KST2 200013Z 02008KT 06/M03 A3029 RMK A01 T00561026  RH  056%=      5-min Rain = 0
KST2 200014Z 02009KT 06/M03 A3029 RMK A01 T00551027  RH  056%=      5-min Rain = 0
KST2 200015Z 02008KT 06/M03 A3029 RMK A01 T00551026  RH  056%=      5-min Rain = 0
KST2 200016Z 02008KT 05/M03 A3029 RMK A01 T00541027  RH  056%=      5-min Rain = 0
KST2 200017Z 02009KT 05/M03 A3029 RMK A01 T00541026  RH  056%=      5-min Rain = 0
KST2 200018Z 02010KT 05/M03 A3029 RMK A01 T00531029  RH  055%=      5-min Rain = 0
KST2 200019Z 02009KT 05/M03 A3029 RMK A01 T00531030  RH  055%=      5-min Rain = 0
KST2 200020Z 02008KT 05/M03 A3029 RMK A01 T00531029  RH  055%=      5-min Rain = 0
KST2 200021Z 03009KT 05/M03 A3029 RMK A01 T00531027  RH  056%=      5-min Rain = 0
KST2 200022Z 02009KT 05/M03 A303 RMK A01 T00521027  RH  056%=      5-min Rain = 0
KST2 200023Z 02009KT 05/M03 A303 RMK A01 T00511029  RH  056%=      5-min Rain = 0
KST2 200024Z 02008KT 05/M03 A303 RMK A01 T00521029  RH  056%=      5-min Rain = 0
KST2 200025Z 02008KT 05/M03 A303 RMK A01 T00511029  RH  056%=      5-min Rain = 0
KST2 200026Z 02009KT 05/M03 A303 RMK A01 T00511029  RH  056%=      5-min Rain = 0
KST2 200027Z 02009KT 05/M03 A303 RMK A01 T00511029  RH  056%=      5-min Rain = 0
KST2 200028Z 02009KT 05/M03 A303 RMK A01 T00501029  RH  057%=      5-min Rain = 0
KST2 200029Z 02009KT 05/M03 A303 RMK A01 T00501029  RH  057%=      5-min Rain = 0
KST2 200030Z 02008KT 05/M03 A303 RMK A01 T00501028  RH  057%=      5-min Rain = 0
KST2 200031Z 02008KT 05/M03 A303 RMK A01 T00491027  RH  058%=      5-min Rain = 0
KST2 200032Z 02007KT 05/M03 A303 RMK A01 T00481027  RH  058%=      5-min Rain = 0
KST2 200033Z 03007KT 05/M03 A303 RMK A01 T00471026  RH  059%=      5-min Rain = 0
KST2 200034Z 03006KT 05/M02 A303 RMK A01 T00461024  RH  060%=      5-min Rain = 0
KST2 200035Z 03007KT 05/M02 A303 RMK A01 T00451024  RH  061%=      5-min Rain = 0
KST2 200036Z 03007KT 04/M02 A303 RMK A01 T00441024  RH  061%=      5-min Rain = 0
KST2 200037Z 04007KT 04/M03 A303 RMK A01 T00421025  RH  062%=      5-min Rain = 0
KST2 200038Z 04006KT 04/M03 A303 RMK A01 T00421025  RH  062%=      5-min Rain = 0
KST2 200039Z 03006KT 04/M02 A303 RMK A01 T00411024  RH  062%=      5-min Rain = 0
KST2 200040Z 03007KT 04/M03 A303 RMK A01 T00411025  RH  062%=      5-min Rain = 0
KST2 200041Z 03006KT 04/M03 A303 RMK A01 T00411027  RH  061%=      5-min Rain = 0
KST2 200042Z 03006KT 04/M03 A303 RMK A01 T00411028  RH  061%=      5-min Rain = 0
KST2 200043Z 03006KT 04/M03 A303 RMK A01 T00411027  RH  061%=      5-min Rain = 0
KST2 200044Z 03006KT 04/M03 A303 RMK A01 T00401027  RH  062%=      5-min Rain = 0
KST2 200045Z 03006KT 04/M03 A303 RMK A01 T00401027  RH  062%=      5-min Rain = 0
KST2 200046Z 02005KT 04/M03 A303 RMK A01 T00391026  RH  062%=      5-min Rain = 0
KST2 200047Z 02006KT 04/M03 A303 RMK A01 T00381026  RH  063%=      5-min Rain = 0
KST2 200048Z 02006KT 04/M03 A303 RMK A01 T00371026  RH  064%=      5-min Rain = 0
KST2 200049Z 02006KT 04/M03 A303 RMK A01 T00371025  RH  064%=      5-min Rain = 0
KST2 200050Z 02005KT 04/M02 A303 RMK A01 T00361024  RH  064%=      5-min Rain = 0
KST2 200051Z 02005KT 04/M02 A303 RMK A01 T00361024  RH  065%=      5-min Rain = 0
KST2 200052Z 02005KT 04/M02 A303 RMK A01 T00361023  RH  065%=      5-min Rain = 0
KST2 200053Z 01004KT 04/M02 A303 RMK A01 T00361023  RH  065%=      5-min Rain = 0
KST2 200054Z 01004KT 04/M02 A303 RMK A01 T00361024  RH  065%=      5-min Rain = 0
KST2 200055Z 01004KT 04/M03 A303 RMK A01 T00361025  RH  064%=      5-min Rain = 0
KST2 200056Z 00004KT 04/M03 A303 RMK A01 T00361026  RH  064%=      5-min Rain = 0
KST2 200057Z 00003KT 04/M03 A303 RMK A01 T00371028  RH  063%=      5-min Rain = 0
KST2 200058Z 01003KT 04/M03 A303 RMK A01 T00361029  RH  063%=      5-min Rain = 0
KST2 200059Z 01003KT 04/M03 A303 RMK A01 T00361029  RH  062%=      5-min Rain = 0
KST2 200100Z 02004KT 04/M03 A303 RMK A01 T00361029  RH  063%=      5-min Rain = 0
KST2 200101Z 01004KT 04/M03 A303 RMK A01 T00361028  RH  063%=      5-min Rain = 0
KST2 200102Z 02004KT 04/M03 A303 RMK A01 T00361028  RH  063%=      5-min Rain = 0
KST2 200103Z 02004KT 04/M03 A303 RMK A01 T00361027  RH  063%=      5-min Rain = 0
KST2 200104Z 03004KT 04/M03 A303 RMK A01 T00351027  RH  064%=      5-min Rain = 0
KST2 200105Z 03005KT 04/M03 A303 RMK A01 T00351027  RH  064%=      5-min Rain = 0
KST2 200106Z 03005KT 04/M03 A303 RMK A01 T00351026  RH  064%=      5-min Rain = 0
KST2 200107Z 03005KT 03/M03 A303 RMK A01 T00341027  RH  064%=      5-min Rain = 0
KST2 200108Z 04005KT 03/M03 A3031 RMK A01 T00341027  RH  064%=      5-min Rain = 0
KST2 200109Z 04005KT 03/M03 A3031 RMK A01 T00331029  RH  064%=      5-min Rain = 0
KST2 200110Z 04005KT 03/M03 A3031 RMK A01 T00331029  RH  064%=      5-min Rain = 0
KST2 200111Z 04005KT 03/M03 A3031 RMK A01 T00331028  RH  065%=      5-min Rain = 0
KST2 200112Z 05005KT 03/M03 A3031 RMK A01 T00321027  RH  065%=      5-min Rain = 0
KST2 200113Z 05005KT 03/M03 A3031 RMK A01 T00321027  RH  065%=      5-min Rain = 0
KST2 200114Z 05004KT 03/M03 A3031 RMK A01 T00321026  RH  066%=      5-min Rain = 0
KST2 200115Z 05004KT 03/M03 A3031 RMK A01 T00321025  RH  066%=      5-min Rain = 0
KST2 200116Z 05004KT 03/M02 A3031 RMK A01 T00321024  RH  067%=      5-min Rain = 0
KST2 200117Z 05003KT 03/M02 A3031 RMK A01 T00321023  RH  067%=      5-min Rain = 0
KST2 200118Z 06003KT 03/M02 A3031 RMK A01 T00321024  RH  067%=      5-min Rain = 0
KST2 200119Z 06002KT 03/M02 A3031 RMK A01 T00321023  RH  068%=      5-min Rain = 0
KST2 200120Z 07001KT 03/M02 A3031 RMK A01 T00311022  RH  068%=      5-min Rain = 0
KST2 200121Z 08001KT 03/M02 A3031 RMK A01 T00311023  RH  068%=      5-min Rain = 0
KST2 200122Z 07001KT 03/M02 A3031 RMK A01 T00301023  RH  068%=      5-min Rain = 0
KST2 200123Z 06001KT 03/M02 A3031 RMK A01 T00301022  RH  069%=      5-min Rain = 0
KST2 200124Z 06000KT 03/M02 A3031 RMK A01 T00291023  RH  069%=      5-min Rain = 0
KST2 200125Z 08001KT 03/M02 A3031 RMK A01 T00281024  RH  069%=      5-min Rain = 0
KST2 200126Z 06001KT 03/M02 A3031 RMK A01 T00281024  RH  068%=      5-min Rain = 0
KST2 200127Z 05001KT 03/M03 A3031 RMK A01 T00281025  RH  068%=      5-min Rain = 0
KST2 200128Z 06002KT 03/M02 A3031 RMK A01 T00281024  RH  069%=      5-min Rain = 0
KST2 200129Z 05002KT 03/M02 A3031 RMK A01 T00271022  RH  070%=      5-min Rain = 0
KST2 200130Z 04003KT 03/M02 A3031 RMK A01 T00271024  RH  069%=      5-min Rain = 0
KST2 200131Z 04003KT 03/M03 A3031 RMK A01 T00271027  RH  068%=      5-min Rain = 0
KST2 200132Z 04004KT 03/M03 A3031 RMK A01 T00281029  RH  066%=      5-min Rain = 0
KST2 200133Z 04004KT 03/M03 A3031 RMK A01 T00291028  RH  066%=      5-min Rain = 0
KST2 200134Z 03005KT 03/M03 A3031 RMK A01 T00281028  RH  066%=      5-min Rain = 0
KST2 200135Z 04005KT 03/M03 A3031 RMK A01 T00281029  RH  066%=      5-min Rain = 0
KST2 200136Z 04005KT 03/M03 A3031 RMK A01 T00281028  RH  067%=      5-min Rain = 0
KST2 200137Z 03006KT 03/M03 A3031 RMK A01 T00271028  RH  067%=      5-min Rain = 0
KST2 200138Z 03006KT 03/M03 A3031 RMK A01 T00271029  RH  066%=      5-min Rain = 0
KST2 200139Z 03006KT 03/M03 A3031 RMK A01 T00271029  RH  066%=      5-min Rain = 0
KST2 200140Z 03005KT 03/M03 A3031 RMK A01 T00271029  RH  066%=      5-min Rain = 0
KST2 200141Z 03006KT 03/M03 A3031 RMK A01 T00271030  RH  066%=      5-min Rain = 0
KST2 200142Z 03006KT 03/M03 A3031 RMK A01 T00271030  RH  066%=      5-min Rain = 0
KST2 200143Z 03006KT 03/M03 A3031 RMK A01 T00271030  RH  066%=      5-min Rain = 0
KST2 200144Z 03006KT 03/M03 A3031 RMK A01 T00271030  RH  066%=      5-min Rain = 0
KST2 200145Z 03006KT 03/M03 A3031 RMK A01 T00271030  RH  066%=      5-min Rain = 0
KST2 200146Z 03006KT 03/M03 A3031 RMK A01 T00271030  RH  066%=      5-min Rain = 0
KST2 200147Z 03007KT 03/M03 A3031 RMK A01 T00271031  RH  066%=      5-min Rain = 0
KST2 200148Z 02007KT 03/M03 A3031 RMK A01 T00271030  RH  066%=      5-min Rain = 0
KST2 200149Z 03007KT 03/M03 A3031 RMK A01 T00261032  RH  066%=      5-min Rain = 0
KST2 200150Z 02007KT 03/M03 A3032 RMK A01 T00271032  RH  065%=      5-min Rain = 0
KST2 200151Z 02007KT 03/M03 A3032 RMK A01 T00261032  RH  065%=      5-min Rain = 0
KST2 200152Z 02007KT 03/M03 A3032 RMK A01 T00261033  RH  065%=      5-min Rain = 0
KST2 200153Z 02007KT 03/M03 A3032 RMK A01 T00271033  RH  065%=      5-min Rain = 0
KST2 200154Z 02007KT 03/M03 A3032 RMK A01 T00271033  RH  065%=      5-min Rain = 0
KST2 200155Z 02006KT 03/M03 A3032 RMK A01 T00271033  RH  065%=      5-min Rain = 0
KST2 200156Z 02006KT 03/M03 A3032 RMK A01 T00271032  RH  065%=      5-min Rain = 0
KST2 200157Z 02006KT 03/M03 A3033 RMK A01 T00261033  RH  065%=      5-min Rain = 0
KST2 200158Z 02006KT 03/M03 A3033 RMK A01 T00261033  RH  065%=      5-min Rain = 0
KST2 200159Z 02006KT 03/M03 A3033 RMK A01 T00261033  RH  065%=      5-min Rain = 0
KST2 200200Z 03006KT 03/M03 A3033 RMK A01 T00261032  RH  065%=      5-min Rain = 0
KST2 200201Z 03006KT 03/M03 A3033 RMK A01 T00261034  RH  065%=      5-min Rain = 0
KST2 200202Z 03006KT 03/M03 A3033 RMK A01 T00261034  RH  064%=      5-min Rain = 0
KST2 200203Z 03006KT 03/M04 A3033 RMK A01 T00251035  RH  065%=      5-min Rain = 0
KST2 200204Z 03006KT 03/M04 A3033 RMK A01 T00251035  RH  065%=      5-min Rain = 0
KST2 200205Z 04006KT 03/M03 A3033 RMK A01 T00251034  RH  065%=      5-min Rain = 0
KST2 200206Z 04006KT 03/M03 A3033 RMK A01 T00251034  RH  065%=      5-min Rain = 0
KST2 200207Z 04006KT 02/M03 A3033 RMK A01 T00241034  RH  065%=      5-min Rain = 0
KST2 200208Z 04006KT 02/M03 A3033 RMK A01 T00241034  RH  065%=      5-min Rain = 0
KST2 200209Z 04006KT 02/M04 A3033 RMK A01 T00231035  RH  066%=      5-min Rain = 0
KST2 200210Z 04005KT 02/M04 A3033 RMK A01 T00231035  RH  066%=      5-min Rain = 0
KST2 200211Z 04005KT 02/M03 A3033 RMK A01 T00221034  RH  066%=      5-min Rain = 0
KST2 200212Z 04005KT 02/M03 A3033 RMK A01 T00221034  RH  067%=      5-min Rain = 0
KST2 200213Z 03005KT 02/M03 A3033 RMK A01 T00221033  RH  067%=      5-min Rain = 0
KST2 200214Z 03005KT 02/M03 A3034 RMK A01 T00211033  RH  068%=      5-min Rain = 0
KST2 200215Z 03005KT 02/M03 A3033 RMK A01 T00211032  RH  068%=      5-min Rain = 0
KST2 200216Z 03005KT 02/M03 A3033 RMK A01 T00211031  RH  068%=      5-min Rain = 0
KST2 200217Z 03005KT 02/M03 A3033 RMK A01 T00201031  RH  069%=      5-min Rain = 0
KST2 200218Z 03005KT 02/M03 A3033 RMK A01 T00201030  RH  069%=      5-min Rain = 0
KST2 200219Z 03005KT 02/M03 A3033 RMK A01 T00191030  RH  070%=      5-min Rain = 0
KST2 200220Z 03006KT 02/M03 A3033 RMK A01 T00191031  RH  070%=      5-min Rain = 0
KST2 200221Z 03006KT 02/M03 A3033 RMK A01 T00191031  RH  069%=      5-min Rain = 0
KST2 200222Z 03006KT 02/M03 A3033 RMK A01 T00191031  RH  070%=      5-min Rain = 0
KST2 200223Z 02005KT 02/M03 A3033 RMK A01 T00181031  RH  070%=      5-min Rain = 0
KST2 200224Z 02005KT 02/M03 A3033 RMK A01 T00181030  RH  070%=      5-min Rain = 0
KST2 200225Z 02005KT 02/M03 A3033 RMK A01 T00181030  RH  070%=      5-min Rain = 0
KST2 200226Z 02005KT 02/M03 A3033 RMK A01 T00181030  RH  071%=      5-min Rain = 0
KST2 200227Z 02006KT 02/M03 A3033 RMK A01 T00181030  RH  071%=      5-min Rain = 0
KST2 200228Z 02006KT 02/M03 A3033 RMK A01 T00181032  RH  069%=      5-min Rain = 0
KST2 200229Z 02006KT 02/M03 A3033 RMK A01 T00181033  RH  069%=      5-min Rain = 0
KST2 200230Z 03006KT 02/M03 A3033 RMK A01 T00181033  RH  069%=      5-min Rain = 0
KST2 200231Z 03006KT 02/M03 A3033 RMK A01 T00191034  RH  068%=      5-min Rain = 0
KST2 200232Z 03006KT 02/M03 A3033 RMK A01 T00201034  RH  068%=      5-min Rain = 0
KST2 200233Z 03006KT 02/M03 A3033 RMK A01 T00201034  RH  068%=      5-min Rain = 0
KST2 200234Z 03006KT 02/M03 A3033 RMK A01 T00201034  RH  068%=      5-min Rain = 0
KST2 200235Z 03006KT 02/M03 A3033 RMK A01 T00201034  RH  068%=      5-min Rain = 0
KST2 200236Z 03006KT 02/M03 A3033 RMK A01 T00191034  RH  068%=      5-min Rain = 0
KST2 200237Z 03006KT 02/M03 A3033 RMK A01 T00191034  RH  067%=      5-min Rain = 0
KST2 200238Z 03005KT 02/M04 A3033 RMK A01 T00191035  RH  067%=      5-min Rain = 0
KST2 200239Z 03005KT 02/M04 A3033 RMK A01 T00201036  RH  067%=      5-min Rain = 0
KST2 200240Z 03005KT 02/M04 A3032 RMK A01 T00191036  RH  067%=      5-min Rain = 0
KST2 200241Z 03004KT 02/M04 A3032 RMK A01 T00201036  RH  066%=      5-min Rain = 0
KST2 200242Z 03004KT 02/M04 A3032 RMK A01 T00191037  RH  066%=      5-min Rain = 0
KST2 200243Z 03004KT 02/M04 A3032 RMK A01 T00191037  RH  066%=      5-min Rain = 0
KST2 200244Z 03003KT 02/M04 A3032 RMK A01 T00191038  RH  066%=      5-min Rain = 0
KST2 200245Z 03003KT 02/M04 A3032 RMK A01 T00191038  RH  066%=      5-min Rain = 0
KST2 200246Z 03002KT 02/M04 A3033 RMK A01 T00191038  RH  066%=      5-min Rain = 0
KST2 200247Z 03001KT 02/M04 A3033 RMK A01 T00181038  RH  066%=      5-min Rain = 0
KST2 200248Z 04001KT 02/M04 A3033 RMK A01 T00171039  RH  066%=      5-min Rain = 0
KST2 200249Z 05001KT 02/M04 A3033 RMK A01 T00171039  RH  066%=      5-min Rain = 0
KST2 200250Z 07001KT 02/M04 A3033 RMK A01 T00171038  RH  067%=      5-min Rain = 0
KST2 200251Z 07002KT 02/M04 A3033 RMK A01 T00171038  RH  067%=      5-min Rain = 0
KST2 200252Z 09002KT 02/M04 A3033 RMK A01 T00171039  RH  067%=      5-min Rain = 0
KST2 200253Z 10002KT 02/M04 A3032 RMK A01 T00161038  RH  067%=      5-min Rain = 0
KST2 200254Z 09003KT 02/M04 A3032 RMK A01 T00151036  RH  069%=      5-min Rain = 0
KST2 200255Z 08003KT 01/M03 A3032 RMK A01 T00121034  RH  071%=      5-min Rain = 0
KST2 200256Z 08004KT 01/M04 A3032 RMK A01 T00111035  RH  072%=      5-min Rain = 0
KST2 200257Z 08004KT 01/M03 A3032 RMK A01 T00101033  RH  073%=      5-min Rain = 0
KST2 200258Z 08004KT 01/M03 A3032 RMK A01 T00101029  RH  075%=      5-min Rain = 0
KST2 200259Z 08004KT 01/M03 A3032 RMK A01 T00101027  RH  076%=      5-min Rain = 0
KST2 200300Z 07004KT 01/M03 A3032 RMK A01 T00101026  RH  077%=      5-min Rain = 0
KST2 200301Z 07004KT 01/M03 A3032 RMK A01 T00101028  RH  076%=      5-min Rain = 0
KST2 200302Z 07004KT 01/M03 A3032 RMK A01 T00091029  RH  076%=      5-min Rain = 0
KST2 200303Z 07004KT 01/M03 A3032 RMK A01 T00101029  RH  076%=      5-min Rain = 0
KST2 200304Z 07004KT 01/M03 A3032 RMK A01 T00091030  RH  075%=      5-min Rain = 0
KST2 200305Z 06004KT 01/M03 A3032 RMK A01 T00091029  RH  076%=      5-min Rain = 0
KST2 200306Z 06004KT 01/M03 A3032 RMK A01 T00091030  RH  075%=      5-min Rain = 0
KST2 200307Z 06004KT 01/M03 A3032 RMK A01 T00091031  RH  074%=      5-min Rain = 0
KST2 200308Z 06004KT 01/M03 A3032 RMK A01 T00091032  RH  074%=      5-min Rain = 0
KST2 200309Z 06004KT 01/M03 A3032 RMK A01 T00091032  RH  074%=      5-min Rain = 0
KST2 200310Z 06003KT 01/M03 A3032 RMK A01 T00091032  RH  074%=      5-min Rain = 0
KST2 200311Z 06003KT 01/M03 A3032 RMK A01 T00081033  RH  074%=      5-min Rain = 0
KST2 200312Z 06003KT 01/M03 A3032 RMK A01 T00081033  RH  074%=      5-min Rain = 0
KST2 200313Z 06003KT 01/M03 A3032 RMK A01 T00081034  RH  073%=      5-min Rain = 0
KST2 200314Z 06003KT 01/M03 A3032 RMK A01 T00081034  RH  073%=      5-min Rain = 0
KST2 200315Z 05003KT 01/M04 A3032 RMK A01 T00081035  RH  073%=      5-min Rain = 0
KST2 200316Z 05003KT 01/M04 A3032 RMK A01 T00081036  RH  072%=      5-min Rain = 0
KST2 200317Z 05003KT 01/M04 A3032 RMK A01 T00091036  RH  072%=      5-min Rain = 0
KST2 200318Z 05004KT 01/M04 A3032 RMK A01 T00091037  RH  071%=      5-min Rain = 0
KST2 200319Z 05004KT 01/M04 A3032 RMK A01 T00091037  RH  071%=      5-min Rain = 0
KST2 200320Z 05005KT 01/M04 A3032 RMK A01 T00091036  RH  072%=      5-min Rain = 0
KST2 200321Z 05005KT 01/M04 A3032 RMK A01 T00091036  RH  072%=      5-min Rain = 0
KST2 200322Z 05005KT 01/M04 A3033 RMK A01 T00091035  RH  072%=      5-min Rain = 0
KST2 200323Z 05005KT 01/M04 A3033 RMK A01 T00091036  RH  072%=      5-min Rain = 0
KST2 200324Z 06005KT 01/M04 A3033 RMK A01 T00091036  RH  072%=      5-min Rain = 0
KST2 200325Z 06005KT 01/M04 A3033 RMK A01 T00101035  RH  072%=      5-min Rain = 0
KST2 200326Z 06005KT 01/M04 A3033 RMK A01 T00101035  RH  072%=      5-min Rain = 0
KST2 200327Z 06005KT 01/M04 A3033 RMK A01 T00101035  RH  072%=      5-min Rain = 0
KST2 200328Z 06005KT 01/M03 A3033 RMK A01 T00101034  RH  072%=      5-min Rain = 0
KST2 200329Z 07005KT 01/M04 A3033 RMK A01 T00101035  RH  072%=      5-min Rain = 0
KST2 200330Z 07005KT 01/M04 A3033 RMK A01 T00101035  RH  072%=      5-min Rain = 0
KST2 200331Z 07005KT 01/M04 A3033 RMK A01 T00101036  RH  071%=      5-min Rain = 0
KST2 200332Z 07005KT 01/M04 A3034 RMK A01 T00101035  RH  072%=      5-min Rain = 0
KST2 200333Z 07004KT 01/M03 A3034 RMK A01 T00101034  RH  073%=      5-min Rain = 0
KST2 200334Z 07004KT 01/M04 A3034 RMK A01 T00101035  RH  072%=      5-min Rain = 0
KST2 200335Z 07003KT 01/M04 A3034 RMK A01 T00091036  RH  072%=      5-min Rain = 0
KST2 200336Z 07003KT 01/M04 A3034 RMK A01 T00091035  RH  072%=      5-min Rain = 0
KST2 200337Z 06003KT 01/M03 A3034 RMK A01 T00081034  RH  073%=      5-min Rain = 0
KST2 200338Z 06003KT 01/M04 A3034 RMK A01 T00081036  RH  072%=      5-min Rain = 0
KST2 200339Z 05003KT 01/M04 A3034 RMK A01 T00081038  RH  072%=      5-min Rain = 0
KST2 200340Z 04002KT 01/M04 A3034 RMK A01 T00081038  RH  071%=      5-min Rain = 0
KST2 200341Z 03002KT 01/M04 A3034 RMK A01 T00081039  RH  071%=      5-min Rain = 0
KST2 200342Z 03002KT 01/M04 A3034 RMK A01 T00071039  RH  071%=      5-min Rain = 0
KST2 200343Z 03002KT 01/M04 A3034 RMK A01 T00081038  RH  071%=      5-min Rain = 0
KST2 200344Z 03003KT 01/M04 A3034 RMK A01 T00071037  RH  072%=      5-min Rain = 0
KST2 200345Z 03003KT 01/M04 A3034 RMK A01 T00071036  RH  073%=      5-min Rain = 0
KST2 200346Z 03003KT 01/M04 A3034 RMK A01 T00071035  RH  073%=      5-min Rain = 0
KST2 200347Z 03004KT 01/M03 A3034 RMK A01 T00061034  RH  074%=      5-min Rain = 0
KST2 200348Z 03004KT 01/M04 A3034 RMK A01 T00061035  RH  074%=      5-min Rain = 0
KST2 200349Z 04004KT 01/M04 A3034 RMK A01 T00061036  RH  074%=      5-min Rain = 0
KST2 200350Z 04004KT 01/M04 A3034 RMK A01 T00061036  RH  073%=      5-min Rain = 0
KST2 200351Z 05005KT 01/M04 A3034 RMK A01 T00061037  RH  073%=      5-min Rain = 0
KST2 200352Z 05005KT 01/M04 A3034 RMK A01 T00061036  RH  073%=      5-min Rain = 0
KST2 200353Z 05004KT 01/M04 A3034 RMK A01 T00061036  RH  073%=      5-min Rain = 0
KST2 200354Z 05003KT 01/M04 A3034 RMK A01 T00061036  RH  074%=      5-min Rain = 0
KST2 200355Z 05003KT 01/M04 A3034 RMK A01 T00051037  RH  073%=      5-min Rain = 0
KST2 200356Z 04002KT 01/M04 A3034 RMK A01 T00051037  RH  073%=      5-min Rain = 0
KST2 200357Z 03001KT 01/M04 A3035 RMK A01 T00051037  RH  073%=      5-min Rain = 0
KST2 200358Z 03001KT 01/M04 A3035 RMK A01 T00051037  RH  073%=      5-min Rain = 0
KST2 200359Z 03002KT 01/M04 A3035 RMK A01 T00051038  RH  073%=      5-min Rain = 0
KST2 200400Z 04002KT 01/M04 A3035 RMK A01 T00051038  RH  073%=      5-min Rain = 0
KST2 200401Z 04003KT 01/M04 A3034 RMK A01 T00051037  RH  074%=      5-min Rain = 0
KST2 200402Z 04003KT 01/M04 A3034 RMK A01 T00051039  RH  073%=      5-min Rain = 0
KST2 200403Z 05004KT 01/M04 A3034 RMK A01 T00051039  RH  073%=      5-min Rain = 0
KST2 200404Z 05004KT 00/M04 A3034 RMK A01 T00041037  RH  074%=      5-min Rain = 0
KST2 200405Z 05004KT 00/M04 A3034 RMK A01 T00041036  RH  074%=      5-min Rain = 0
KST2 200406Z 06004KT 00/M04 A3034 RMK A01 T00041036  RH  075%=      5-min Rain = 0
KST2 200407Z 06004KT 00/M04 A3034 RMK A01 T00041036  RH  075%=      5-min Rain = 0
KST2 200408Z 06003KT 00/M04 A3034 RMK A01 T00041035  RH  075%=      5-min Rain = 0
KST2 200409Z 06003KT 00/M04 A3034 RMK A01 T00031036  RH  075%=      5-min Rain = 0
KST2 200410Z 06002KT 00/M04 A3034 RMK A01 T00031036  RH  075%=      5-min Rain = 0
KST2 200411Z 07002KT 00/M04 A3035 RMK A01 T00031037  RH  075%=      5-min Rain = 0
KST2 200412Z 08002KT 00/M04 A3035 RMK A01 T00031037  RH  075%=      5-min Rain = 0
KST2 200413Z 09002KT 00/M04 A3035 RMK A01 T00031036  RH  075%=      5-min Rain = 0
KST2 200414Z 09003KT 00/M04 A3035 RMK A01 T00031036  RH  075%=      5-min Rain = 0
KST2 200415Z 09003KT 00/M04 A3035 RMK A01 T00031038  RH  074%=      5-min Rain = 0
KST2 200416Z 09003KT 00/M04 A3035 RMK A01 T00031038  RH  074%=      5-min Rain = 0
KST2 200417Z 09003KT 00/M04 A3035 RMK A01 T00031038  RH  074%=      5-min Rain = 0
KST2 200418Z 09004KT 00/M04 A3035 RMK A01 T00021039  RH  074%=      5-min Rain = 0
KST2 200419Z 08004KT 00/M04 A3035 RMK A01 T00011039  RH  074%=      5-min Rain = 0
KST2 200420Z 08003KT 00/04 A3035 RMK A01 T00000-39  RH  075%=      5-min Rain = 0
KST2 200421Z 08003KT M00/M04 A3036 RMK A01 T10011039  RH  075%=      5-min Rain = 0
KST2 200422Z 08003KT M00/M04 A3036 RMK A01 T10011040  RH  075%=      5-min Rain = 0
KST2 200423Z 08004KT M00/M04 A3036 RMK A01 T10021040  RH  076%=      5-min Rain = 0
KST2 200424Z 07004KT M00/M04 A3036 RMK A01 T10011038  RH  076%=      5-min Rain = 0
KST2 200425Z 07004KT M00/M04 A3036 RMK A01 T10021037  RH  077%=      5-min Rain = 0
KST2 200426Z 07005KT M00/M04 A3036 RMK A01 T10021037  RH  077%=      5-min Rain = 0
KST2 200427Z 07005KT M00/M04 A3036 RMK A01 T10021037  RH  077%=      5-min Rain = 0
KST2 200428Z 07005KT M00/M04 A3036 RMK A01 T10021037  RH  077%=      5-min Rain = 0
KST2 200429Z 07005KT M00/M04 A3035 RMK A01 T10011038  RH  076%=      5-min Rain = 0
KST2 200430Z 07005KT 00/04 A3035 RMK A01 T00-00-38  RH  076%=      5-min Rain = 0
KST2 200431Z 07005KT 00/04 A3035 RMK A01 T00000-38  RH  075%=      5-min Rain = 0
KST2 200432Z 07005KT 00/M04 A3036 RMK A01 T00011040  RH  074%=      5-min Rain = 0
KST2 200433Z 07005KT 00/M04 A3036 RMK A01 T00011040  RH  074%=      5-min Rain = 0
KST2 200434Z 08005KT 00/M04 A3036 RMK A01 T00021040  RH  073%=      5-min Rain = 0
KST2 200435Z 08004KT 00/M04 A3035 RMK A01 T00011042  RH  073%=      5-min Rain = 0
KST2 200436Z 09004KT 00/M04 A3035 RMK A01 T00011043  RH  072%=      5-min Rain = 0
KST2 200437Z 09003KT 00/M04 A3036 RMK A01 T00011044  RH  071%=      5-min Rain = 0
KST2 200438Z 08003KT 00/M05 A3036 RMK A01 T00011045  RH  071%=      5-min Rain = 0
KST2 200439Z 08004KT 00/M05 A3036 RMK A01 T00011045  RH  071%=      5-min Rain = 0
KST2 200440Z 08004KT 00/M05 A3035 RMK A01 T00011046  RH  071%=      5-min Rain = 0
KST2 200441Z 08004KT 00/M05 A3035 RMK A01 T00011047  RH  070%=      5-min Rain = 0
KST2 200442Z 08004KT 00/M05 A3035 RMK A01 T00011047  RH  070%=      5-min Rain = 0
KST2 200443Z 08004KT 00/M05 A3035 RMK A01 T00011047  RH  070%=      5-min Rain = 0
KST2 200444Z 08004KT 00/M05 A3035 RMK A01 T00011047  RH  070%=      5-min Rain = 0
KST2 200445Z 07004KT 00/M04 A3035 RMK A01 T00011044  RH  072%=      5-min Rain = 0
KST2 200446Z 07004KT 00/M04 A3035 RMK A01 T00011043  RH  072%=      5-min Rain = 0
KST2 200447Z 08004KT 00/M05 A3035 RMK A01 T00011045  RH  071%=      5-min Rain = 0
KST2 200448Z 08004KT 00/M04 A3035 RMK A01 T00011044  RH  072%=      5-min Rain = 0
KST2 200449Z 08004KT 00/M04 A3035 RMK A01 T00021044  RH  072%=      5-min Rain = 0
KST2 200450Z 08004KT 00/M04 A3035 RMK A01 T00021043  RH  071%=      5-min Rain = 0
KST2 200451Z 08004KT 00/M04 A3036 RMK A01 T00021044  RH  071%=      5-min Rain = 0
KST2 200452Z 08004KT 00/M05 A3036 RMK A01 T00021046  RH  070%=      5-min Rain = 0
KST2 200453Z 08004KT 00/M04 A3036 RMK A01 T00021044  RH  071%=      5-min Rain = 0
KST2 200454Z 08003KT 00/M04 A3036 RMK A01 T00021044  RH  071%=      5-min Rain = 0
KST2 200455Z 09003KT 00/M04 A3036 RMK A01 T00021042  RH  072%=      5-min Rain = 0
KST2 200456Z 09003KT 00/M04 A3036 RMK A01 T00021042  RH  072%=      5-min Rain = 0
KST2 200457Z 09003KT 00/M04 A3036 RMK A01 T00011044  RH  072%=      5-min Rain = 0
KST2 200458Z 09003KT 00/M05 A3036 RMK A01 T00011045  RH  072%=      5-min Rain = 0
KST2 200459Z 09003KT 00/M04 A3036 RMK A01 T00011041  RH  073%=      5-min Rain = 0
KST2 200500Z 09002KT 00/04 A3036 RMK A01 T00000-41  RH  074%=      5-min Rain = 0
KST2 200501Z 10002KT 00/04 A3036 RMK A01 T00-00-42  RH  073%=      5-min Rain = 0
KST2 200502Z 10003KT 00/04 A3036 RMK A01 T00-00-43  RH  073%=      5-min Rain = 0
KST2 200503Z 10003KT M00/M05 A3036 RMK A01 T10011045  RH  072%=      5-min Rain = 0
KST2 200504Z 09003KT M00/M05 A3036 RMK A01 T10011047  RH  071%=      5-min Rain = 0
KST2 200505Z 09004KT M00/M05 A3036 RMK A01 T10021047  RH  072%=      5-min Rain = 0
KST2 200506Z 09004KT M00/M05 A3036 RMK A01 T10021047  RH  072%=      5-min Rain = 0
KST2 200507Z 09004KT M00/M05 A3036 RMK A01 T10031046  RH  073%=      5-min Rain = 0
KST2 200508Z 10003KT M00/M05 A3036 RMK A01 T10041045  RH  074%=      5-min Rain = 0
KST2 200509Z 12003KT M00/M04 A3036 RMK A01 T10041044  RH  074%=      5-min Rain = 0
KST2 200510Z 13003KT M01/M05 A3036 RMK A01 T10051045  RH  075%=      5-min Rain = 0
KST2 200511Z 13003KT M01/M05 A3036 RMK A01 T10051045  RH  075%=      5-min Rain = 0
KST2 200512Z 13003KT M01/M04 A3036 RMK A01 T10051044  RH  075%=      5-min Rain = 0
KST2 200513Z 13003KT M01/M04 A3037 RMK A01 T10051044  RH  075%=      5-min Rain = 0
KST2 200514Z 13003KT M00/M04 A3037 RMK A01 T10041044  RH  075%=      5-min Rain = 0
KST2 200515Z 12003KT M00/M05 A3036 RMK A01 T10041045  RH  074%=      5-min Rain = 0
KST2 200516Z 11003KT M00/M05 A3036 RMK A01 T10041047  RH  073%=      5-min Rain = 0
KST2 200517Z 11003KT M00/M05 A3036 RMK A01 T10041047  RH  073%=      5-min Rain = 0
KST2 200518Z 11003KT M00/M05 A3036 RMK A01 T10041046  RH  073%=      5-min Rain = 0
KST2 200519Z 11003KT M01/M05 A3036 RMK A01 T10051045  RH  074%=      5-min Rain = 0
KST2 200520Z 11003KT M01/M04 A3036 RMK A01 T10051044  RH  075%=      5-min Rain = 0
KST2 200521Z 11003KT M01/M05 A3036 RMK A01 T10061045  RH  075%=      5-min Rain = 0
KST2 200522Z 11003KT M01/M04 A3036 RMK A01 T10061044  RH  075%=      5-min Rain = 0
KST2 200523Z 11003KT M01/M05 A3036 RMK A01 T10061045  RH  075%=      5-min Rain = 0
KST2 200524Z 11003KT M01/M04 A3036 RMK A01 T10061044  RH  076%=      5-min Rain = 0
KST2 200525Z 11003KT M01/M04 A3036 RMK A01 T10071042  RH  077%=      5-min Rain = 0
KST2 200526Z 11003KT M01/M04 A3036 RMK A01 T10071043  RH  077%=      5-min Rain = 0
KST2 200527Z 11003KT M01/M05 A3036 RMK A01 T10071045  RH  076%=      5-min Rain = 0
KST2 200528Z 11002KT M01/M04 A3036 RMK A01 T10071044  RH  076%=      5-min Rain = 0
KST2 200529Z 11003KT M01/M04 A3036 RMK A01 T10071043  RH  077%=      5-min Rain = 0
KST2 200530Z 11003KT M01/M04 A3036 RMK A01 T10071043  RH  076%=      5-min Rain = 0
KST2 200531Z 11003KT M01/M04 A3036 RMK A01 T10071044  RH  076%=      5-min Rain = 0
KST2 200532Z 11003KT M01/M04 A3036 RMK A01 T10071044  RH  076%=      5-min Rain = 0
KST2 200533Z 12003KT M01/M04 A3036 RMK A01 T10071044  RH  076%=      5-min Rain = 0
KST2 200534Z 12003KT M01/M04 A3036 RMK A01 T10071043  RH  076%=      5-min Rain = 0
KST2 200535Z 12003KT M01/M04 A3036 RMK A01 T10071044  RH  076%=      5-min Rain = 0
KST2 200536Z 12003KT M01/M04 A3036 RMK A01 T10071044  RH  076%=      5-min Rain = 0
KST2 200537Z 12003KT M01/M05 A3036 RMK A01 T10071046  RH  075%=      5-min Rain = 0
KST2 200538Z 11004KT M01/M05 A3036 RMK A01 T10061047  RH  074%=      5-min Rain = 0
KST2 200539Z 11004KT M01/M05 A3035 RMK A01 T10061048  RH  073%=      5-min Rain = 0
KST2 200540Z 10004KT M01/M05 A3035 RMK A01 T10061048  RH  073%=      5-min Rain = 0
KST2 200541Z 10004KT M01/M05 A3035 RMK A01 T10061048  RH  073%=      5-min Rain = 0
KST2 200542Z 10004KT M01/M05 A3035 RMK A01 T10061048  RH  073%=      5-min Rain = 0
KST2 200543Z 10004KT M01/M05 A3035 RMK A01 T10071048  RH  074%=      5-min Rain = 0
KST2 200544Z 10004KT M01/M05 A3035 RMK A01 T10071047  RH  074%=      5-min Rain = 0
KST2 200545Z 10004KT M01/M05 A3035 RMK A01 T10071045  RH  075%=      5-min Rain = 0
KST2 200546Z 10004KT M01/M05 A3035 RMK A01 T10071045  RH  075%=      5-min Rain = 0
KST2 200547Z 09005KT M01/M05 A3035 RMK A01 T10071045  RH  075%=      5-min Rain = 0
KST2 200548Z 09004KT M01/M04 A3035 RMK A01 T10071044  RH  076%=      5-min Rain = 0
KST2 200549Z 09004KT M01/M04 A3035 RMK A01 T10071044  RH  076%=      5-min Rain = 0
KST2 200550Z 09004KT M01/M04 A3035 RMK A01 T10061044  RH  076%=      5-min Rain = 0
KST2 200551Z 09004KT M01/M04 A3035 RMK A01 T10061043  RH  076%=      5-min Rain = 0
KST2 200552Z 10004KT M01/M04 A3035 RMK A01 T10061043  RH  076%=      5-min Rain = 0
KST2 200553Z 10003KT M01/M04 A3035 RMK A01 T10061044  RH  075%=      5-min Rain = 0
KST2 200554Z 11003KT M01/M05 A3035 RMK A01 T10061045  RH  075%=      5-min Rain = 0
KST2 200555Z 13003KT M01/M05 A3035 RMK A01 T10071045  RH  075%=      5-min Rain = 0
KST2 200556Z 14002KT M01/M04 A3035 RMK A01 T10071044  RH  076%=      5-min Rain = 0
KST2 200557Z 15002KT M01/M04 A3036 RMK A01 T10071041  RH  078%=      5-min Rain = 0
KST2 200558Z 16002KT M01/M04 A3036 RMK A01 T10081040  RH  079%=      5-min Rain = 0
KST2 200559Z 16002KT M01/M04 A3036 RMK A01 T10081041  RH  079%=      5-min Rain = 0

Page generated in 0.1215 seconds.